<?xml version="1.0" encoding="UTF-8" standalone="no" ?>
<gpx xmlns="http://www.topografix.com/GPX/1/1" xmlns:xsi="http://www.w3.org/2001/XMLSchema-instance" xsi:schemaLocation="http://www.topografix.com/GPX/1/1 http://www.topografix.com/GPX/1/1/gpx.xsd" version="1.1" creator="VisuGPX - https://www.visugpx.com">
  <metadata>
    <name>Neufchateaux MARCHE ADEPS 2015 (Mars)</name>
    <desc><![CDATA[Balade sympa à faire pour se ressourcé ]]></desc>
  </metadata>
  <trk>
    <name><![CDATA[solo scooby]]></name>
    <cmt><![CDATA[AVG 16° MAX 21° MIN 09°]]></cmt>
    <trkseg>
      <trkpt lat="49.83879" lon="5.43457">
        <ele>432</ele>
        <time>2015-03-01T09:32:12Z</time>
      </trkpt>
      <trkpt lat="49.83878" lon="5.4346">
        <ele>432</ele>
        <time>2015-03-01T09:32:17Z</time>
      </trkpt>
      <trkpt lat="49.83879" lon="5.43468">
        <ele>432</ele>
        <time>2015-03-01T09:32:23Z</time>
      </trkpt>
      <trkpt lat="49.83882" lon="5.43474">
        <ele>431</ele>
        <time>2015-03-01T09:32:28Z</time>
      </trkpt>
      <trkpt lat="49.83888" lon="5.43475">
        <ele>431</ele>
        <time>2015-03-01T09:32:34Z</time>
      </trkpt>
      <trkpt lat="49.83893" lon="5.43475">
        <ele>431</ele>
        <time>2015-03-01T09:32:39Z</time>
      </trkpt>
      <trkpt lat="49.83897" lon="5.43474">
        <ele>431</ele>
        <time>2015-03-01T09:32:45Z</time>
      </trkpt>
      <trkpt lat="49.83907" lon="5.43475">
        <ele>432</ele>
        <time>2015-03-01T09:32:51Z</time>
      </trkpt>
      <trkpt lat="49.83911" lon="5.43481">
        <ele>433</ele>
        <time>2015-03-01T09:32:57Z</time>
      </trkpt>
      <trkpt lat="49.83916" lon="5.43488">
        <ele>433</ele>
        <time>2015-03-01T09:33:03Z</time>
      </trkpt>
      <trkpt lat="49.83922" lon="5.43495">
        <ele>432</ele>
        <time>2015-03-01T09:33:09Z</time>
      </trkpt>
      <trkpt lat="49.8392" lon="5.43492">
        <ele>431</ele>
        <time>2015-03-01T09:33:14Z</time>
      </trkpt>
      <trkpt lat="49.8392" lon="5.43493">
        <ele>431</ele>
        <time>2015-03-01T09:33:19Z</time>
      </trkpt>
      <trkpt lat="49.83924" lon="5.43498">
        <ele>431</ele>
        <time>2015-03-01T09:33:24Z</time>
      </trkpt>
      <trkpt lat="49.83929" lon="5.43502">
        <ele>431</ele>
        <time>2015-03-01T09:33:29Z</time>
      </trkpt>
      <trkpt lat="49.83935" lon="5.43506">
        <ele>430</ele>
        <time>2015-03-01T09:33:34Z</time>
      </trkpt>
      <trkpt lat="49.83939" lon="5.43512">
        <ele>429</ele>
        <time>2015-03-01T09:33:40Z</time>
      </trkpt>
      <trkpt lat="49.83936" lon="5.43509">
        <ele>429</ele>
        <time>2015-03-01T09:33:45Z</time>
      </trkpt>
      <trkpt lat="49.83931" lon="5.43503">
        <ele>430</ele>
        <time>2015-03-01T09:33:51Z</time>
      </trkpt>
      <trkpt lat="49.83928" lon="5.43497">
        <ele>430</ele>
        <time>2015-03-01T09:33:56Z</time>
      </trkpt>
      <trkpt lat="49.83922" lon="5.4349">
        <ele>432</ele>
        <time>2015-03-01T09:34:02Z</time>
      </trkpt>
      <trkpt lat="49.83921" lon="5.43486">
        <ele>432</ele>
        <time>2015-03-01T09:34:07Z</time>
      </trkpt>
      <trkpt lat="49.8392" lon="5.43484">
        <ele>433</ele>
        <time>2015-03-01T09:34:13Z</time>
      </trkpt>
      <trkpt lat="49.83921" lon="5.43486">
        <ele>433</ele>
        <time>2015-03-01T09:34:18Z</time>
      </trkpt>
      <trkpt lat="49.83922" lon="5.43486">
        <ele>432</ele>
        <time>2015-03-01T09:34:23Z</time>
      </trkpt>
      <trkpt lat="49.83924" lon="5.4349">
        <ele>432</ele>
        <time>2015-03-01T09:34:28Z</time>
      </trkpt>
      <trkpt lat="49.83928" lon="5.43495">
        <ele>431</ele>
        <time>2015-03-01T09:34:33Z</time>
      </trkpt>
      <trkpt lat="49.83934" lon="5.435">
        <ele>430</ele>
        <time>2015-03-01T09:34:39Z</time>
      </trkpt>
      <trkpt lat="49.83939" lon="5.43505">
        <ele>430</ele>
        <time>2015-03-01T09:34:45Z</time>
      </trkpt>
      <trkpt lat="49.83947" lon="5.4351">
        <ele>429</ele>
        <time>2015-03-01T09:34:51Z</time>
      </trkpt>
      <trkpt lat="49.83952" lon="5.43514">
        <ele>428</ele>
        <time>2015-03-01T09:34:56Z</time>
      </trkpt>
      <trkpt lat="49.8396" lon="5.43514">
        <ele>427</ele>
        <time>2015-03-01T09:35:01Z</time>
      </trkpt>
      <trkpt lat="49.83966" lon="5.43513">
        <ele>428</ele>
        <time>2015-03-01T09:35:06Z</time>
      </trkpt>
      <trkpt lat="49.83973" lon="5.43509">
        <ele>428</ele>
        <time>2015-03-01T09:35:11Z</time>
      </trkpt>
      <trkpt lat="49.83981" lon="5.43507">
        <ele>427</ele>
        <time>2015-03-01T09:35:16Z</time>
      </trkpt>
      <trkpt lat="49.83988" lon="5.43506">
        <ele>427</ele>
        <time>2015-03-01T09:35:21Z</time>
      </trkpt>
      <trkpt lat="49.83997" lon="5.43502">
        <ele>427</ele>
        <time>2015-03-01T09:35:27Z</time>
      </trkpt>
      <trkpt lat="49.84" lon="5.43492">
        <ele>427</ele>
        <time>2015-03-01T09:35:32Z</time>
      </trkpt>
      <trkpt lat="49.84" lon="5.43479">
        <ele>427</ele>
        <time>2015-03-01T09:35:38Z</time>
      </trkpt>
      <trkpt lat="49.84" lon="5.43467">
        <ele>428</ele>
        <time>2015-03-01T09:35:43Z</time>
      </trkpt>
      <trkpt lat="49.83999" lon="5.43456">
        <ele>428</ele>
        <time>2015-03-01T09:35:49Z</time>
      </trkpt>
      <trkpt lat="49.83997" lon="5.43445">
        <ele>428</ele>
        <time>2015-03-01T09:35:54Z</time>
      </trkpt>
      <trkpt lat="49.83995" lon="5.43437">
        <ele>428</ele>
        <time>2015-03-01T09:35:59Z</time>
      </trkpt>
      <trkpt lat="49.83988" lon="5.43433">
        <ele>428</ele>
        <time>2015-03-01T09:36:05Z</time>
      </trkpt>
      <trkpt lat="49.83981" lon="5.43434">
        <ele>427</ele>
        <time>2015-03-01T09:36:10Z</time>
      </trkpt>
      <trkpt lat="49.83974" lon="5.43431">
        <ele>427</ele>
        <time>2015-03-01T09:36:15Z</time>
      </trkpt>
      <trkpt lat="49.83969" lon="5.43425">
        <ele>426</ele>
        <time>2015-03-01T09:36:20Z</time>
      </trkpt>
      <trkpt lat="49.83965" lon="5.43418">
        <ele>426</ele>
        <time>2015-03-01T09:36:26Z</time>
      </trkpt>
      <trkpt lat="49.83968" lon="5.43408">
        <ele>425</ele>
        <time>2015-03-01T09:36:32Z</time>
      </trkpt>
      <trkpt lat="49.83969" lon="5.43406">
        <ele>425</ele>
        <time>2015-03-01T09:36:38Z</time>
      </trkpt>
      <trkpt lat="49.83971" lon="5.43406">
        <ele>424</ele>
        <time>2015-03-01T09:36:44Z</time>
      </trkpt>
      <trkpt lat="49.83976" lon="5.43403">
        <ele>424</ele>
        <time>2015-03-01T09:36:50Z</time>
      </trkpt>
      <trkpt lat="49.83981" lon="5.43396">
        <ele>422</ele>
        <time>2015-03-01T09:36:56Z</time>
      </trkpt>
      <trkpt lat="49.8398" lon="5.43392">
        <ele>420</ele>
        <time>2015-03-01T09:37:02Z</time>
      </trkpt>
      <trkpt lat="49.83981" lon="5.43391">
        <ele>420</ele>
        <time>2015-03-01T09:37:08Z</time>
      </trkpt>
      <trkpt lat="49.83982" lon="5.4339">
        <ele>419</ele>
        <time>2015-03-01T09:37:13Z</time>
      </trkpt>
      <trkpt lat="49.83981" lon="5.43387">
        <ele>419</ele>
        <time>2015-03-01T09:37:19Z</time>
      </trkpt>
      <trkpt lat="49.83977" lon="5.43379">
        <ele>420</ele>
        <time>2015-03-01T09:37:25Z</time>
      </trkpt>
      <trkpt lat="49.83974" lon="5.43374">
        <ele>419</ele>
        <time>2015-03-01T09:37:30Z</time>
      </trkpt>
      <trkpt lat="49.83971" lon="5.43368">
        <ele>417</ele>
        <time>2015-03-01T09:37:36Z</time>
      </trkpt>
      <trkpt lat="49.83968" lon="5.4336">
        <ele>416</ele>
        <time>2015-03-01T09:37:41Z</time>
      </trkpt>
      <trkpt lat="49.83965" lon="5.4335">
        <ele>414</ele>
        <time>2015-03-01T09:37:47Z</time>
      </trkpt>
      <trkpt lat="49.83962" lon="5.43339">
        <ele>413</ele>
        <time>2015-03-01T09:37:53Z</time>
      </trkpt>
      <trkpt lat="49.83959" lon="5.4333">
        <ele>412</ele>
        <time>2015-03-01T09:37:58Z</time>
      </trkpt>
      <trkpt lat="49.83957" lon="5.43322">
        <ele>410</ele>
        <time>2015-03-01T09:38:04Z</time>
      </trkpt>
      <trkpt lat="49.83957" lon="5.43322">
        <ele>409</ele>
        <time>2015-03-01T09:38:10Z</time>
      </trkpt>
      <trkpt lat="49.83957" lon="5.43321">
        <ele>409</ele>
        <time>2015-03-01T09:38:16Z</time>
      </trkpt>
      <trkpt lat="49.83957" lon="5.43321">
        <ele>409</ele>
        <time>2015-03-01T09:38:22Z</time>
      </trkpt>
      <trkpt lat="49.83956" lon="5.43321">
        <ele>409</ele>
        <time>2015-03-01T09:38:27Z</time>
      </trkpt>
      <trkpt lat="49.83955" lon="5.43321">
        <ele>409</ele>
        <time>2015-03-01T09:38:34Z</time>
      </trkpt>
      <trkpt lat="49.83955" lon="5.43321">
        <ele>409</ele>
        <time>2015-03-01T09:38:39Z</time>
      </trkpt>
      <trkpt lat="49.83952" lon="5.43312">
        <ele>409</ele>
        <time>2015-03-01T09:38:45Z</time>
      </trkpt>
      <trkpt lat="49.83957" lon="5.43304">
        <ele>407</ele>
        <time>2015-03-01T09:38:51Z</time>
      </trkpt>
      <trkpt lat="49.83962" lon="5.43299">
        <ele>406</ele>
        <time>2015-03-01T09:38:56Z</time>
      </trkpt>
      <trkpt lat="49.83969" lon="5.43295">
        <ele>405</ele>
        <time>2015-03-01T09:39:01Z</time>
      </trkpt>
      <trkpt lat="49.83977" lon="5.43292">
        <ele>405</ele>
        <time>2015-03-01T09:39:06Z</time>
      </trkpt>
      <trkpt lat="49.83983" lon="5.43285">
        <ele>404</ele>
        <time>2015-03-01T09:39:12Z</time>
      </trkpt>
      <trkpt lat="49.83987" lon="5.43274">
        <ele>402</ele>
        <time>2015-03-01T09:39:18Z</time>
      </trkpt>
      <trkpt lat="49.83988" lon="5.43265">
        <ele>401</ele>
        <time>2015-03-01T09:39:23Z</time>
      </trkpt>
      <trkpt lat="49.83987" lon="5.43255">
        <ele>401</ele>
        <time>2015-03-01T09:39:28Z</time>
      </trkpt>
      <trkpt lat="49.83985" lon="5.43246">
        <ele>399</ele>
        <time>2015-03-01T09:39:34Z</time>
      </trkpt>
      <trkpt lat="49.83982" lon="5.43237">
        <ele>399</ele>
        <time>2015-03-01T09:39:39Z</time>
      </trkpt>
      <trkpt lat="49.83978" lon="5.43228">
        <ele>399</ele>
        <time>2015-03-01T09:39:45Z</time>
      </trkpt>
      <trkpt lat="49.83973" lon="5.43223">
        <ele>398</ele>
        <time>2015-03-01T09:39:50Z</time>
      </trkpt>
      <trkpt lat="49.83966" lon="5.43218">
        <ele>397</ele>
        <time>2015-03-01T09:39:56Z</time>
      </trkpt>
      <trkpt lat="49.8396" lon="5.43213">
        <ele>397</ele>
        <time>2015-03-01T09:40:01Z</time>
      </trkpt>
      <trkpt lat="49.83955" lon="5.43205">
        <ele>397</ele>
        <time>2015-03-01T09:40:07Z</time>
      </trkpt>
      <trkpt lat="49.83954" lon="5.432">
        <ele>396</ele>
        <time>2015-03-01T09:40:13Z</time>
      </trkpt>
      <trkpt lat="49.83954" lon="5.43199">
        <ele>395</ele>
        <time>2015-03-01T09:40:19Z</time>
      </trkpt>
      <trkpt lat="49.83954" lon="5.43198">
        <ele>396</ele>
        <time>2015-03-01T09:40:24Z</time>
      </trkpt>
      <trkpt lat="49.83954" lon="5.43198">
        <ele>398</ele>
        <time>2015-03-01T09:40:30Z</time>
      </trkpt>
      <trkpt lat="49.83953" lon="5.43197">
        <ele>397</ele>
        <time>2015-03-01T09:40:35Z</time>
      </trkpt>
      <trkpt lat="49.83952" lon="5.43194">
        <ele>397</ele>
        <time>2015-03-01T09:40:41Z</time>
      </trkpt>
      <trkpt lat="49.83947" lon="5.43188">
        <ele>396</ele>
        <time>2015-03-01T09:40:46Z</time>
      </trkpt>
      <trkpt lat="49.83941" lon="5.43181">
        <ele>396</ele>
        <time>2015-03-01T09:40:52Z</time>
      </trkpt>
      <trkpt lat="49.83934" lon="5.43174">
        <ele>395</ele>
        <time>2015-03-01T09:40:58Z</time>
      </trkpt>
      <trkpt lat="49.83929" lon="5.43167">
        <ele>394</ele>
        <time>2015-03-01T09:41:04Z</time>
      </trkpt>
      <trkpt lat="49.83924" lon="5.43161">
        <ele>394</ele>
        <time>2015-03-01T09:41:09Z</time>
      </trkpt>
      <trkpt lat="49.83919" lon="5.43153">
        <ele>395</ele>
        <time>2015-03-01T09:41:15Z</time>
      </trkpt>
      <trkpt lat="49.83914" lon="5.43146">
        <ele>395</ele>
        <time>2015-03-01T09:41:20Z</time>
      </trkpt>
      <trkpt lat="49.83908" lon="5.43139">
        <ele>395</ele>
        <time>2015-03-01T09:41:26Z</time>
      </trkpt>
      <trkpt lat="49.83902" lon="5.43131">
        <ele>396</ele>
        <time>2015-03-01T09:41:32Z</time>
      </trkpt>
      <trkpt lat="49.83896" lon="5.43125">
        <ele>396</ele>
        <time>2015-03-01T09:41:37Z</time>
      </trkpt>
      <trkpt lat="49.83889" lon="5.4312">
        <ele>396</ele>
        <time>2015-03-01T09:41:42Z</time>
      </trkpt>
      <trkpt lat="49.83883" lon="5.43116">
        <ele>397</ele>
        <time>2015-03-01T09:41:48Z</time>
      </trkpt>
      <trkpt lat="49.83875" lon="5.43112">
        <ele>396</ele>
        <time>2015-03-01T09:41:54Z</time>
      </trkpt>
      <trkpt lat="49.83868" lon="5.43111">
        <ele>396</ele>
        <time>2015-03-01T09:42:00Z</time>
      </trkpt>
      <trkpt lat="49.8386" lon="5.43111">
        <ele>396</ele>
        <time>2015-03-01T09:42:06Z</time>
      </trkpt>
      <trkpt lat="49.83854" lon="5.43111">
        <ele>397</ele>
        <time>2015-03-01T09:42:11Z</time>
      </trkpt>
      <trkpt lat="49.8385" lon="5.43111">
        <ele>397</ele>
        <time>2015-03-01T09:42:16Z</time>
      </trkpt>
      <trkpt lat="49.83843" lon="5.43112">
        <ele>398</ele>
        <time>2015-03-01T09:42:22Z</time>
      </trkpt>
      <trkpt lat="49.83838" lon="5.43114">
        <ele>398</ele>
        <time>2015-03-01T09:42:27Z</time>
      </trkpt>
      <trkpt lat="49.83834" lon="5.43116">
        <ele>397</ele>
        <time>2015-03-01T09:42:33Z</time>
      </trkpt>
      <trkpt lat="49.83828" lon="5.43117">
        <ele>398</ele>
        <time>2015-03-01T09:42:38Z</time>
      </trkpt>
      <trkpt lat="49.83822" lon="5.43118">
        <ele>398</ele>
        <time>2015-03-01T09:42:44Z</time>
      </trkpt>
      <trkpt lat="49.83816" lon="5.4312">
        <ele>398</ele>
        <time>2015-03-01T09:42:49Z</time>
      </trkpt>
      <trkpt lat="49.83809" lon="5.43121">
        <ele>398</ele>
        <time>2015-03-01T09:42:55Z</time>
      </trkpt>
      <trkpt lat="49.83802" lon="5.43123">
        <ele>398</ele>
        <time>2015-03-01T09:43:01Z</time>
      </trkpt>
      <trkpt lat="49.83796" lon="5.43124">
        <ele>398</ele>
        <time>2015-03-01T09:43:06Z</time>
      </trkpt>
      <trkpt lat="49.83788" lon="5.43127">
        <ele>398</ele>
        <time>2015-03-01T09:43:12Z</time>
      </trkpt>
      <trkpt lat="49.83783" lon="5.43129">
        <ele>398</ele>
        <time>2015-03-01T09:43:17Z</time>
      </trkpt>
      <trkpt lat="49.83776" lon="5.43131">
        <ele>398</ele>
        <time>2015-03-01T09:43:23Z</time>
      </trkpt>
      <trkpt lat="49.83773" lon="5.43132">
        <ele>398</ele>
        <time>2015-03-01T09:43:28Z</time>
      </trkpt>
      <trkpt lat="49.83768" lon="5.43132">
        <ele>399</ele>
        <time>2015-03-01T09:43:34Z</time>
      </trkpt>
      <trkpt lat="49.83763" lon="5.43132">
        <ele>399</ele>
        <time>2015-03-01T09:43:39Z</time>
      </trkpt>
      <trkpt lat="49.83758" lon="5.43134">
        <ele>399</ele>
        <time>2015-03-01T09:43:44Z</time>
      </trkpt>
      <trkpt lat="49.83752" lon="5.43139">
        <ele>399</ele>
        <time>2015-03-01T09:43:49Z</time>
      </trkpt>
      <trkpt lat="49.83747" lon="5.43145">
        <ele>400</ele>
        <time>2015-03-01T09:43:55Z</time>
      </trkpt>
      <trkpt lat="49.83744" lon="5.43153">
        <ele>400</ele>
        <time>2015-03-01T09:44:01Z</time>
      </trkpt>
      <trkpt lat="49.83741" lon="5.43159">
        <ele>400</ele>
        <time>2015-03-01T09:44:07Z</time>
      </trkpt>
      <trkpt lat="49.83738" lon="5.43164">
        <ele>402</ele>
        <time>2015-03-01T09:44:12Z</time>
      </trkpt>
      <trkpt lat="49.83736" lon="5.43169">
        <ele>403</ele>
        <time>2015-03-01T09:44:18Z</time>
      </trkpt>
      <trkpt lat="49.83733" lon="5.43174">
        <ele>404</ele>
        <time>2015-03-01T09:44:23Z</time>
      </trkpt>
      <trkpt lat="49.83732" lon="5.43174">
        <ele>404</ele>
        <time>2015-03-01T09:44:29Z</time>
      </trkpt>
      <trkpt lat="49.83731" lon="5.43174">
        <ele>404</ele>
        <time>2015-03-01T09:44:34Z</time>
      </trkpt>
      <trkpt lat="49.83728" lon="5.43178">
        <ele>405</ele>
        <time>2015-03-01T09:44:40Z</time>
      </trkpt>
      <trkpt lat="49.83725" lon="5.43182">
        <ele>406</ele>
        <time>2015-03-01T09:44:45Z</time>
      </trkpt>
      <trkpt lat="49.83721" lon="5.43185">
        <ele>407</ele>
        <time>2015-03-01T09:44:50Z</time>
      </trkpt>
      <trkpt lat="49.83716" lon="5.43189">
        <ele>409</ele>
        <time>2015-03-01T09:44:56Z</time>
      </trkpt>
      <trkpt lat="49.8371" lon="5.43193">
        <ele>412</ele>
        <time>2015-03-01T09:45:02Z</time>
      </trkpt>
      <trkpt lat="49.83708" lon="5.43195">
        <ele>412</ele>
        <time>2015-03-01T09:45:08Z</time>
      </trkpt>
      <trkpt lat="49.83706" lon="5.43196">
        <ele>412</ele>
        <time>2015-03-01T09:45:13Z</time>
      </trkpt>
      <trkpt lat="49.83701" lon="5.43199">
        <ele>412</ele>
        <time>2015-03-01T09:45:19Z</time>
      </trkpt>
      <trkpt lat="49.83696" lon="5.43203">
        <ele>413</ele>
        <time>2015-03-01T09:45:24Z</time>
      </trkpt>
      <trkpt lat="49.8369" lon="5.43205">
        <ele>414</ele>
        <time>2015-03-01T09:45:30Z</time>
      </trkpt>
      <trkpt lat="49.83686" lon="5.43208">
        <ele>414</ele>
        <time>2015-03-01T09:45:35Z</time>
      </trkpt>
      <trkpt lat="49.8368" lon="5.43209">
        <ele>415</ele>
        <time>2015-03-01T09:45:41Z</time>
      </trkpt>
      <trkpt lat="49.83676" lon="5.4321">
        <ele>416</ele>
        <time>2015-03-01T09:45:47Z</time>
      </trkpt>
      <trkpt lat="49.83669" lon="5.43209">
        <ele>416</ele>
        <time>2015-03-01T09:45:53Z</time>
      </trkpt>
      <trkpt lat="49.83663" lon="5.43208">
        <ele>417</ele>
        <time>2015-03-01T09:45:58Z</time>
      </trkpt>
      <trkpt lat="49.83656" lon="5.43206">
        <ele>418</ele>
        <time>2015-03-01T09:46:04Z</time>
      </trkpt>
      <trkpt lat="49.83648" lon="5.43203">
        <ele>419</ele>
        <time>2015-03-01T09:46:10Z</time>
      </trkpt>
      <trkpt lat="49.8364" lon="5.43202">
        <ele>419</ele>
        <time>2015-03-01T09:46:16Z</time>
      </trkpt>
      <trkpt lat="49.83633" lon="5.432">
        <ele>420</ele>
        <time>2015-03-01T09:46:22Z</time>
      </trkpt>
      <trkpt lat="49.83629" lon="5.43198">
        <ele>420</ele>
        <time>2015-03-01T09:46:27Z</time>
      </trkpt>
      <trkpt lat="49.83628" lon="5.43197">
        <ele>420</ele>
        <time>2015-03-01T09:46:32Z</time>
      </trkpt>
      <trkpt lat="49.83627" lon="5.43196">
        <ele>420</ele>
        <time>2015-03-01T09:46:38Z</time>
      </trkpt>
      <trkpt lat="49.83626" lon="5.43196">
        <ele>420</ele>
        <time>2015-03-01T09:46:43Z</time>
      </trkpt>
      <trkpt lat="49.83622" lon="5.43193">
        <ele>420</ele>
        <time>2015-03-01T09:46:49Z</time>
      </trkpt>
      <trkpt lat="49.83617" lon="5.43191">
        <ele>421</ele>
        <time>2015-03-01T09:46:54Z</time>
      </trkpt>
      <trkpt lat="49.83612" lon="5.43188">
        <ele>422</ele>
        <time>2015-03-01T09:47:00Z</time>
      </trkpt>
      <trkpt lat="49.83607" lon="5.43184">
        <ele>422</ele>
        <time>2015-03-01T09:47:05Z</time>
      </trkpt>
      <trkpt lat="49.83603" lon="5.43182">
        <ele>423</ele>
        <time>2015-03-01T09:47:10Z</time>
      </trkpt>
      <trkpt lat="49.83601" lon="5.4318">
        <ele>423</ele>
        <time>2015-03-01T09:47:16Z</time>
      </trkpt>
      <trkpt lat="49.83597" lon="5.43177">
        <ele>423</ele>
        <time>2015-03-01T09:47:21Z</time>
      </trkpt>
      <trkpt lat="49.83598" lon="5.43175">
        <ele>423</ele>
        <time>2015-03-01T09:47:26Z</time>
      </trkpt>
      <trkpt lat="49.83597" lon="5.43174">
        <ele>423</ele>
        <time>2015-03-01T09:47:32Z</time>
      </trkpt>
      <trkpt lat="49.83595" lon="5.43172">
        <ele>424</ele>
        <time>2015-03-01T09:47:37Z</time>
      </trkpt>
      <trkpt lat="49.83592" lon="5.43169">
        <ele>424</ele>
        <time>2015-03-01T09:47:42Z</time>
      </trkpt>
      <trkpt lat="49.83587" lon="5.43167">
        <ele>425</ele>
        <time>2015-03-01T09:47:48Z</time>
      </trkpt>
      <trkpt lat="49.83582" lon="5.43162">
        <ele>426</ele>
        <time>2015-03-01T09:47:54Z</time>
      </trkpt>
      <trkpt lat="49.83577" lon="5.43159">
        <ele>427</ele>
        <time>2015-03-01T09:48:00Z</time>
      </trkpt>
      <trkpt lat="49.83575" lon="5.43159">
        <ele>428</ele>
        <time>2015-03-01T09:48:05Z</time>
      </trkpt>
      <trkpt lat="49.83574" lon="5.43157">
        <ele>427</ele>
        <time>2015-03-01T09:48:10Z</time>
      </trkpt>
      <trkpt lat="49.8357" lon="5.43155">
        <ele>428</ele>
        <time>2015-03-01T09:48:15Z</time>
      </trkpt>
      <trkpt lat="49.83567" lon="5.43151">
        <ele>429</ele>
        <time>2015-03-01T09:48:20Z</time>
      </trkpt>
      <trkpt lat="49.83564" lon="5.4315">
        <ele>429</ele>
        <time>2015-03-01T09:48:25Z</time>
      </trkpt>
      <trkpt lat="49.8356" lon="5.43146">
        <ele>430</ele>
        <time>2015-03-01T09:48:30Z</time>
      </trkpt>
      <trkpt lat="49.83556" lon="5.43145">
        <ele>431</ele>
        <time>2015-03-01T09:48:36Z</time>
      </trkpt>
      <trkpt lat="49.83551" lon="5.43143">
        <ele>431</ele>
        <time>2015-03-01T09:48:41Z</time>
      </trkpt>
      <trkpt lat="49.83545" lon="5.43141">
        <ele>431</ele>
        <time>2015-03-01T09:48:47Z</time>
      </trkpt>
      <trkpt lat="49.83539" lon="5.4314">
        <ele>432</ele>
        <time>2015-03-01T09:48:52Z</time>
      </trkpt>
      <trkpt lat="49.83535" lon="5.4314">
        <ele>434</ele>
        <time>2015-03-01T09:48:57Z</time>
      </trkpt>
      <trkpt lat="49.83531" lon="5.43141">
        <ele>435</ele>
        <time>2015-03-01T09:49:02Z</time>
      </trkpt>
      <trkpt lat="49.83527" lon="5.43141">
        <ele>436</ele>
        <time>2015-03-01T09:49:07Z</time>
      </trkpt>
      <trkpt lat="49.83522" lon="5.43141">
        <ele>435</ele>
        <time>2015-03-01T09:49:12Z</time>
      </trkpt>
      <trkpt lat="49.83517" lon="5.43142">
        <ele>435</ele>
        <time>2015-03-01T09:49:17Z</time>
      </trkpt>
      <trkpt lat="49.83514" lon="5.43143">
        <ele>436</ele>
        <time>2015-03-01T09:49:22Z</time>
      </trkpt>
      <trkpt lat="49.83509" lon="5.43146">
        <ele>437</ele>
        <time>2015-03-01T09:49:27Z</time>
      </trkpt>
      <trkpt lat="49.83504" lon="5.43148">
        <ele>437</ele>
        <time>2015-03-01T09:49:33Z</time>
      </trkpt>
      <trkpt lat="49.83499" lon="5.43151">
        <ele>438</ele>
        <time>2015-03-01T09:49:38Z</time>
      </trkpt>
      <trkpt lat="49.83494" lon="5.43154">
        <ele>438</ele>
        <time>2015-03-01T09:49:44Z</time>
      </trkpt>
      <trkpt lat="49.8349" lon="5.43157">
        <ele>440</ele>
        <time>2015-03-01T09:49:49Z</time>
      </trkpt>
      <trkpt lat="49.83485" lon="5.4316">
        <ele>440</ele>
        <time>2015-03-01T09:49:55Z</time>
      </trkpt>
      <trkpt lat="49.8348" lon="5.43164">
        <ele>440</ele>
        <time>2015-03-01T09:50:01Z</time>
      </trkpt>
      <trkpt lat="49.83475" lon="5.43168">
        <ele>441</ele>
        <time>2015-03-01T09:50:07Z</time>
      </trkpt>
      <trkpt lat="49.8347" lon="5.43172">
        <ele>441</ele>
        <time>2015-03-01T09:50:12Z</time>
      </trkpt>
      <trkpt lat="49.83466" lon="5.43177">
        <ele>441</ele>
        <time>2015-03-01T09:50:18Z</time>
      </trkpt>
      <trkpt lat="49.83461" lon="5.43182">
        <ele>442</ele>
        <time>2015-03-01T09:50:24Z</time>
      </trkpt>
      <trkpt lat="49.83456" lon="5.43188">
        <ele>443</ele>
        <time>2015-03-01T09:50:30Z</time>
      </trkpt>
      <trkpt lat="49.8345" lon="5.43195">
        <ele>443</ele>
        <time>2015-03-01T09:50:36Z</time>
      </trkpt>
      <trkpt lat="49.83446" lon="5.43202">
        <ele>443</ele>
        <time>2015-03-01T09:50:42Z</time>
      </trkpt>
      <trkpt lat="49.83441" lon="5.43209">
        <ele>443</ele>
        <time>2015-03-01T09:50:48Z</time>
      </trkpt>
      <trkpt lat="49.83436" lon="5.43214">
        <ele>444</ele>
        <time>2015-03-01T09:50:54Z</time>
      </trkpt>
      <trkpt lat="49.83432" lon="5.43217">
        <ele>444</ele>
        <time>2015-03-01T09:50:59Z</time>
      </trkpt>
      <trkpt lat="49.8343" lon="5.43217">
        <ele>444</ele>
        <time>2015-03-01T09:51:04Z</time>
      </trkpt>
      <trkpt lat="49.83424" lon="5.43218">
        <ele>444</ele>
        <time>2015-03-01T09:51:09Z</time>
      </trkpt>
      <trkpt lat="49.83418" lon="5.4322">
        <ele>443</ele>
        <time>2015-03-01T09:51:15Z</time>
      </trkpt>
      <trkpt lat="49.83412" lon="5.43222">
        <ele>442</ele>
        <time>2015-03-01T09:51:20Z</time>
      </trkpt>
      <trkpt lat="49.83405" lon="5.43224">
        <ele>443</ele>
        <time>2015-03-01T09:51:26Z</time>
      </trkpt>
      <trkpt lat="49.83397" lon="5.43228">
        <ele>442</ele>
        <time>2015-03-01T09:51:32Z</time>
      </trkpt>
      <trkpt lat="49.8339" lon="5.43231">
        <ele>442</ele>
        <time>2015-03-01T09:51:38Z</time>
      </trkpt>
      <trkpt lat="49.83382" lon="5.43232">
        <ele>442</ele>
        <time>2015-03-01T09:51:44Z</time>
      </trkpt>
      <trkpt lat="49.83383" lon="5.43231">
        <ele>441</ele>
        <time>2015-03-01T09:51:50Z</time>
      </trkpt>
      <trkpt lat="49.83388" lon="5.43231">
        <ele>441</ele>
        <time>2015-03-01T09:51:55Z</time>
      </trkpt>
      <trkpt lat="49.83394" lon="5.43229">
        <ele>442</ele>
        <time>2015-03-01T09:52:00Z</time>
      </trkpt>
      <trkpt lat="49.83402" lon="5.43225">
        <ele>442</ele>
        <time>2015-03-01T09:52:06Z</time>
      </trkpt>
      <trkpt lat="49.83408" lon="5.43224">
        <ele>442</ele>
        <time>2015-03-01T09:52:11Z</time>
      </trkpt>
      <trkpt lat="49.83414" lon="5.43223">
        <ele>443</ele>
        <time>2015-03-01T09:52:16Z</time>
      </trkpt>
      <trkpt lat="49.83421" lon="5.4322">
        <ele>443</ele>
        <time>2015-03-01T09:52:22Z</time>
      </trkpt>
      <trkpt lat="49.83427" lon="5.43218">
        <ele>442</ele>
        <time>2015-03-01T09:52:27Z</time>
      </trkpt>
      <trkpt lat="49.83432" lon="5.43215">
        <ele>443</ele>
        <time>2015-03-01T09:52:32Z</time>
      </trkpt>
      <trkpt lat="49.83435" lon="5.43216">
        <ele>444</ele>
        <time>2015-03-01T09:52:37Z</time>
      </trkpt>
      <trkpt lat="49.83436" lon="5.43219">
        <ele>444</ele>
        <time>2015-03-01T09:52:42Z</time>
      </trkpt>
      <trkpt lat="49.83437" lon="5.4322">
        <ele>443</ele>
        <time>2015-03-01T09:52:48Z</time>
      </trkpt>
      <trkpt lat="49.83439" lon="5.43225">
        <ele>443</ele>
        <time>2015-03-01T09:52:53Z</time>
      </trkpt>
      <trkpt lat="49.83441" lon="5.43233">
        <ele>444</ele>
        <time>2015-03-01T09:52:59Z</time>
      </trkpt>
      <trkpt lat="49.83443" lon="5.43234">
        <ele>444</ele>
        <time>2015-03-01T09:53:04Z</time>
      </trkpt>
      <trkpt lat="49.83443" lon="5.43234">
        <ele>444</ele>
        <time>2015-03-01T09:53:10Z</time>
      </trkpt>
      <trkpt lat="49.83443" lon="5.43235">
        <ele>444</ele>
        <time>2015-03-01T09:53:16Z</time>
      </trkpt>
      <trkpt lat="49.83442" lon="5.43237">
        <ele>444</ele>
        <time>2015-03-01T09:53:21Z</time>
      </trkpt>
      <trkpt lat="49.83441" lon="5.43244">
        <ele>443</ele>
        <time>2015-03-01T09:53:26Z</time>
      </trkpt>
      <trkpt lat="49.83441" lon="5.43252">
        <ele>443</ele>
        <time>2015-03-01T09:53:31Z</time>
      </trkpt>
      <trkpt lat="49.83441" lon="5.43261">
        <ele>444</ele>
        <time>2015-03-01T09:53:36Z</time>
      </trkpt>
      <trkpt lat="49.83441" lon="5.43269">
        <ele>444</ele>
        <time>2015-03-01T09:53:41Z</time>
      </trkpt>
      <trkpt lat="49.83442" lon="5.4328">
        <ele>445</ele>
        <time>2015-03-01T09:53:47Z</time>
      </trkpt>
      <trkpt lat="49.83442" lon="5.4329">
        <ele>445</ele>
        <time>2015-03-01T09:53:52Z</time>
      </trkpt>
      <trkpt lat="49.83442" lon="5.43302">
        <ele>446</ele>
        <time>2015-03-01T09:53:58Z</time>
      </trkpt>
      <trkpt lat="49.83442" lon="5.43314">
        <ele>446</ele>
        <time>2015-03-01T09:54:04Z</time>
      </trkpt>
      <trkpt lat="49.83443" lon="5.43324">
        <ele>446</ele>
        <time>2015-03-01T09:54:09Z</time>
      </trkpt>
      <trkpt lat="49.83442" lon="5.43332">
        <ele>447</ele>
        <time>2015-03-01T09:54:14Z</time>
      </trkpt>
      <trkpt lat="49.83444" lon="5.43339">
        <ele>447</ele>
        <time>2015-03-01T09:54:20Z</time>
      </trkpt>
      <trkpt lat="49.83444" lon="5.4334">
        <ele>447</ele>
        <time>2015-03-01T09:54:26Z</time>
      </trkpt>
      <trkpt lat="49.83443" lon="5.43346">
        <ele>447</ele>
        <time>2015-03-01T09:54:31Z</time>
      </trkpt>
      <trkpt lat="49.83442" lon="5.43353">
        <ele>448</ele>
        <time>2015-03-01T09:54:37Z</time>
      </trkpt>
      <trkpt lat="49.83441" lon="5.43354">
        <ele>448</ele>
        <time>2015-03-01T09:54:42Z</time>
      </trkpt>
      <trkpt lat="49.83439" lon="5.43359">
        <ele>448</ele>
        <time>2015-03-01T09:54:47Z</time>
      </trkpt>
      <trkpt lat="49.83437" lon="5.43367">
        <ele>448</ele>
        <time>2015-03-01T09:54:53Z</time>
      </trkpt>
      <trkpt lat="49.83436" lon="5.43375">
        <ele>448</ele>
        <time>2015-03-01T09:54:58Z</time>
      </trkpt>
      <trkpt lat="49.83434" lon="5.43384">
        <ele>448</ele>
        <time>2015-03-01T09:55:03Z</time>
      </trkpt>
      <trkpt lat="49.83431" lon="5.43392">
        <ele>448</ele>
        <time>2015-03-01T09:55:09Z</time>
      </trkpt>
      <trkpt lat="49.83429" lon="5.43399">
        <ele>449</ele>
        <time>2015-03-01T09:55:14Z</time>
      </trkpt>
      <trkpt lat="49.83428" lon="5.43406">
        <ele>449</ele>
        <time>2015-03-01T09:55:19Z</time>
      </trkpt>
      <trkpt lat="49.83425" lon="5.43414">
        <ele>449</ele>
        <time>2015-03-01T09:55:25Z</time>
      </trkpt>
      <trkpt lat="49.83424" lon="5.43422">
        <ele>449</ele>
        <time>2015-03-01T09:55:30Z</time>
      </trkpt>
      <trkpt lat="49.83424" lon="5.43432">
        <ele>450</ele>
        <time>2015-03-01T09:55:36Z</time>
      </trkpt>
      <trkpt lat="49.83424" lon="5.4344">
        <ele>451</ele>
        <time>2015-03-01T09:55:42Z</time>
      </trkpt>
      <trkpt lat="49.83423" lon="5.43447">
        <ele>452</ele>
        <time>2015-03-01T09:55:47Z</time>
      </trkpt>
      <trkpt lat="49.83423" lon="5.43456">
        <ele>452</ele>
        <time>2015-03-01T09:55:52Z</time>
      </trkpt>
      <trkpt lat="49.83422" lon="5.4346">
        <ele>453</ele>
        <time>2015-03-01T09:55:57Z</time>
      </trkpt>
      <trkpt lat="49.83421" lon="5.43467">
        <ele>452</ele>
        <time>2015-03-01T09:56:02Z</time>
      </trkpt>
      <trkpt lat="49.83421" lon="5.43474">
        <ele>452</ele>
        <time>2015-03-01T09:56:07Z</time>
      </trkpt>
      <trkpt lat="49.83419" lon="5.43484">
        <ele>454</ele>
        <time>2015-03-01T09:56:13Z</time>
      </trkpt>
      <trkpt lat="49.83419" lon="5.43493">
        <ele>453</ele>
        <time>2015-03-01T09:56:18Z</time>
      </trkpt>
      <trkpt lat="49.83418" lon="5.43503">
        <ele>453</ele>
        <time>2015-03-01T09:56:23Z</time>
      </trkpt>
      <trkpt lat="49.83417" lon="5.43507">
        <ele>454</ele>
        <time>2015-03-01T09:56:28Z</time>
      </trkpt>
      <trkpt lat="49.83417" lon="5.43514">
        <ele>454</ele>
        <time>2015-03-01T09:56:33Z</time>
      </trkpt>
      <trkpt lat="49.83416" lon="5.43522">
        <ele>455</ele>
        <time>2015-03-01T09:56:38Z</time>
      </trkpt>
      <trkpt lat="49.83417" lon="5.43526">
        <ele>455</ele>
        <time>2015-03-01T09:56:43Z</time>
      </trkpt>
      <trkpt lat="49.83417" lon="5.43531">
        <ele>455</ele>
        <time>2015-03-01T09:56:48Z</time>
      </trkpt>
      <trkpt lat="49.83417" lon="5.43541">
        <ele>455</ele>
        <time>2015-03-01T09:56:54Z</time>
      </trkpt>
      <trkpt lat="49.83417" lon="5.4355">
        <ele>455</ele>
        <time>2015-03-01T09:56:59Z</time>
      </trkpt>
      <trkpt lat="49.83417" lon="5.4356">
        <ele>455</ele>
        <time>2015-03-01T09:57:04Z</time>
      </trkpt>
      <trkpt lat="49.83418" lon="5.43571">
        <ele>455</ele>
        <time>2015-03-01T09:57:09Z</time>
      </trkpt>
      <trkpt lat="49.83418" lon="5.43579">
        <ele>456</ele>
        <time>2015-03-01T09:57:15Z</time>
      </trkpt>
      <trkpt lat="49.83416" lon="5.43589">
        <ele>456</ele>
        <time>2015-03-01T09:57:20Z</time>
      </trkpt>
      <trkpt lat="49.83414" lon="5.43598">
        <ele>456</ele>
        <time>2015-03-01T09:57:25Z</time>
      </trkpt>
      <trkpt lat="49.8341" lon="5.43606">
        <ele>457</ele>
        <time>2015-03-01T09:57:30Z</time>
      </trkpt>
      <trkpt lat="49.83407" lon="5.43612">
        <ele>458</ele>
        <time>2015-03-01T09:57:36Z</time>
      </trkpt>
      <trkpt lat="49.83406" lon="5.43617">
        <ele>458</ele>
        <time>2015-03-01T09:57:41Z</time>
      </trkpt>
      <trkpt lat="49.83403" lon="5.43624">
        <ele>457</ele>
        <time>2015-03-01T09:57:47Z</time>
      </trkpt>
      <trkpt lat="49.83399" lon="5.4363">
        <ele>458</ele>
        <time>2015-03-01T09:57:52Z</time>
      </trkpt>
      <trkpt lat="49.83397" lon="5.43635">
        <ele>459</ele>
        <time>2015-03-01T09:57:57Z</time>
      </trkpt>
      <trkpt lat="49.83396" lon="5.43639">
        <ele>458</ele>
        <time>2015-03-01T09:58:03Z</time>
      </trkpt>
      <trkpt lat="49.83394" lon="5.43641">
        <ele>459</ele>
        <time>2015-03-01T09:58:08Z</time>
      </trkpt>
      <trkpt lat="49.83393" lon="5.43644">
        <ele>459</ele>
        <time>2015-03-01T09:58:13Z</time>
      </trkpt>
      <trkpt lat="49.83389" lon="5.43649">
        <ele>458</ele>
        <time>2015-03-01T09:58:18Z</time>
      </trkpt>
      <trkpt lat="49.83384" lon="5.43658">
        <ele>459</ele>
        <time>2015-03-01T09:58:24Z</time>
      </trkpt>
      <trkpt lat="49.83379" lon="5.43665">
        <ele>460</ele>
        <time>2015-03-01T09:58:29Z</time>
      </trkpt>
      <trkpt lat="49.83378" lon="5.4367">
        <ele>460</ele>
        <time>2015-03-01T09:58:35Z</time>
      </trkpt>
      <trkpt lat="49.83376" lon="5.43672">
        <ele>460</ele>
        <time>2015-03-01T09:58:40Z</time>
      </trkpt>
      <trkpt lat="49.83373" lon="5.4368">
        <ele>460</ele>
        <time>2015-03-01T09:58:46Z</time>
      </trkpt>
      <trkpt lat="49.83369" lon="5.43688">
        <ele>461</ele>
        <time>2015-03-01T09:58:52Z</time>
      </trkpt>
      <trkpt lat="49.83366" lon="5.43696">
        <ele>461</ele>
        <time>2015-03-01T09:58:58Z</time>
      </trkpt>
      <trkpt lat="49.83365" lon="5.43701">
        <ele>461</ele>
        <time>2015-03-01T09:59:03Z</time>
      </trkpt>
      <trkpt lat="49.83365" lon="5.43703">
        <ele>460</ele>
        <time>2015-03-01T09:59:08Z</time>
      </trkpt>
      <trkpt lat="49.83368" lon="5.43708">
        <ele>461</ele>
        <time>2015-03-01T09:59:14Z</time>
      </trkpt>
      <trkpt lat="49.83365" lon="5.43715">
        <ele>461</ele>
        <time>2015-03-01T09:59:20Z</time>
      </trkpt>
      <trkpt lat="49.83362" lon="5.43721">
        <ele>462</ele>
        <time>2015-03-01T09:59:25Z</time>
      </trkpt>
      <trkpt lat="49.83355" lon="5.43729">
        <ele>462</ele>
        <time>2015-03-01T09:59:30Z</time>
      </trkpt>
      <trkpt lat="49.83348" lon="5.43737">
        <ele>463</ele>
        <time>2015-03-01T09:59:36Z</time>
      </trkpt>
      <trkpt lat="49.83339" lon="5.43745">
        <ele>462</ele>
        <time>2015-03-01T09:59:42Z</time>
      </trkpt>
      <trkpt lat="49.83332" lon="5.4375">
        <ele>462</ele>
        <time>2015-03-01T09:59:47Z</time>
      </trkpt>
      <trkpt lat="49.83327" lon="5.43755">
        <ele>463</ele>
        <time>2015-03-01T09:59:52Z</time>
      </trkpt>
      <trkpt lat="49.83321" lon="5.43761">
        <ele>463</ele>
        <time>2015-03-01T09:59:58Z</time>
      </trkpt>
      <trkpt lat="49.83316" lon="5.43767">
        <ele>463</ele>
        <time>2015-03-01T10:00:04Z</time>
      </trkpt>
      <trkpt lat="49.8331" lon="5.43773">
        <ele>463</ele>
        <time>2015-03-01T10:00:10Z</time>
      </trkpt>
      <trkpt lat="49.83302" lon="5.4378">
        <ele>464</ele>
        <time>2015-03-01T10:00:16Z</time>
      </trkpt>
      <trkpt lat="49.83296" lon="5.43787">
        <ele>465</ele>
        <time>2015-03-01T10:00:21Z</time>
      </trkpt>
      <trkpt lat="49.8329" lon="5.43794">
        <ele>465</ele>
        <time>2015-03-01T10:00:26Z</time>
      </trkpt>
      <trkpt lat="49.83283" lon="5.43802">
        <ele>464</ele>
        <time>2015-03-01T10:00:32Z</time>
      </trkpt>
      <trkpt lat="49.83278" lon="5.43809">
        <ele>464</ele>
        <time>2015-03-01T10:00:37Z</time>
      </trkpt>
      <trkpt lat="49.83271" lon="5.43814">
        <ele>464</ele>
        <time>2015-03-01T10:00:43Z</time>
      </trkpt>
      <trkpt lat="49.83267" lon="5.43819">
        <ele>464</ele>
        <time>2015-03-01T10:00:48Z</time>
      </trkpt>
      <trkpt lat="49.83263" lon="5.43824">
        <ele>464</ele>
        <time>2015-03-01T10:00:53Z</time>
      </trkpt>
      <trkpt lat="49.83259" lon="5.43829">
        <ele>464</ele>
        <time>2015-03-01T10:00:58Z</time>
      </trkpt>
      <trkpt lat="49.83255" lon="5.43836">
        <ele>464</ele>
        <time>2015-03-01T10:01:03Z</time>
      </trkpt>
      <trkpt lat="49.83249" lon="5.43842">
        <ele>465</ele>
        <time>2015-03-01T10:01:09Z</time>
      </trkpt>
      <trkpt lat="49.83245" lon="5.43849">
        <ele>465</ele>
        <time>2015-03-01T10:01:14Z</time>
      </trkpt>
      <trkpt lat="49.83242" lon="5.43857">
        <ele>464</ele>
        <time>2015-03-01T10:01:19Z</time>
      </trkpt>
      <trkpt lat="49.8324" lon="5.43866">
        <ele>463</ele>
        <time>2015-03-01T10:01:24Z</time>
      </trkpt>
      <trkpt lat="49.83239" lon="5.43875">
        <ele>463</ele>
        <time>2015-03-01T10:01:29Z</time>
      </trkpt>
      <trkpt lat="49.83238" lon="5.43887">
        <ele>464</ele>
        <time>2015-03-01T10:01:35Z</time>
      </trkpt>
      <trkpt lat="49.83239" lon="5.43898">
        <ele>463</ele>
        <time>2015-03-01T10:01:41Z</time>
      </trkpt>
      <trkpt lat="49.83239" lon="5.43908">
        <ele>463</ele>
        <time>2015-03-01T10:01:46Z</time>
      </trkpt>
      <trkpt lat="49.83239" lon="5.43919">
        <ele>462</ele>
        <time>2015-03-01T10:01:52Z</time>
      </trkpt>
      <trkpt lat="49.83239" lon="5.43928">
        <ele>462</ele>
        <time>2015-03-01T10:01:57Z</time>
      </trkpt>
      <trkpt lat="49.83239" lon="5.43935">
        <ele>463</ele>
        <time>2015-03-01T10:02:02Z</time>
      </trkpt>
      <trkpt lat="49.83237" lon="5.43944">
        <ele>463</ele>
        <time>2015-03-01T10:02:07Z</time>
      </trkpt>
      <trkpt lat="49.83236" lon="5.4395">
        <ele>463</ele>
        <time>2015-03-01T10:02:13Z</time>
      </trkpt>
      <trkpt lat="49.83236" lon="5.43951">
        <ele>462</ele>
        <time>2015-03-01T10:02:18Z</time>
      </trkpt>
      <trkpt lat="49.83235" lon="5.43951">
        <ele>462</ele>
        <time>2015-03-01T10:02:23Z</time>
      </trkpt>
      <trkpt lat="49.83234" lon="5.43952">
        <ele>462</ele>
        <time>2015-03-01T10:02:28Z</time>
      </trkpt>
      <trkpt lat="49.83231" lon="5.4396">
        <ele>462</ele>
        <time>2015-03-01T10:02:33Z</time>
      </trkpt>
      <trkpt lat="49.83228" lon="5.43969">
        <ele>461</ele>
        <time>2015-03-01T10:02:39Z</time>
      </trkpt>
      <trkpt lat="49.83226" lon="5.4398">
        <ele>461</ele>
        <time>2015-03-01T10:02:45Z</time>
      </trkpt>
      <trkpt lat="49.83225" lon="5.43987">
        <ele>462</ele>
        <time>2015-03-01T10:02:50Z</time>
      </trkpt>
      <trkpt lat="49.83225" lon="5.4399">
        <ele>463</ele>
        <time>2015-03-01T10:02:56Z</time>
      </trkpt>
      <trkpt lat="49.83223" lon="5.43995">
        <ele>462</ele>
        <time>2015-03-01T10:03:02Z</time>
      </trkpt>
      <trkpt lat="49.83221" lon="5.44002">
        <ele>461</ele>
        <time>2015-03-01T10:03:07Z</time>
      </trkpt>
      <trkpt lat="49.83218" lon="5.44011">
        <ele>461</ele>
        <time>2015-03-01T10:03:12Z</time>
      </trkpt>
      <trkpt lat="49.83216" lon="5.4402">
        <ele>462</ele>
        <time>2015-03-01T10:03:18Z</time>
      </trkpt>
      <trkpt lat="49.83215" lon="5.44028">
        <ele>463</ele>
        <time>2015-03-01T10:03:23Z</time>
      </trkpt>
      <trkpt lat="49.83212" lon="5.44037">
        <ele>462</ele>
        <time>2015-03-01T10:03:28Z</time>
      </trkpt>
      <trkpt lat="49.83211" lon="5.44045">
        <ele>461</ele>
        <time>2015-03-01T10:03:33Z</time>
      </trkpt>
      <trkpt lat="49.83209" lon="5.44054">
        <ele>461</ele>
        <time>2015-03-01T10:03:38Z</time>
      </trkpt>
      <trkpt lat="49.83207" lon="5.44064">
        <ele>461</ele>
        <time>2015-03-01T10:03:44Z</time>
      </trkpt>
      <trkpt lat="49.83204" lon="5.44075">
        <ele>461</ele>
        <time>2015-03-01T10:03:50Z</time>
      </trkpt>
      <trkpt lat="49.83204" lon="5.44077">
        <ele>461</ele>
        <time>2015-03-01T10:03:55Z</time>
      </trkpt>
      <trkpt lat="49.83201" lon="5.44086">
        <ele>460</ele>
        <time>2015-03-01T10:04:01Z</time>
      </trkpt>
      <trkpt lat="49.83199" lon="5.44096">
        <ele>460</ele>
        <time>2015-03-01T10:04:07Z</time>
      </trkpt>
      <trkpt lat="49.83195" lon="5.44106">
        <ele>460</ele>
        <time>2015-03-01T10:04:13Z</time>
      </trkpt>
      <trkpt lat="49.83193" lon="5.44114">
        <ele>460</ele>
        <time>2015-03-01T10:04:18Z</time>
      </trkpt>
      <trkpt lat="49.83189" lon="5.44123">
        <ele>459</ele>
        <time>2015-03-01T10:04:24Z</time>
      </trkpt>
      <trkpt lat="49.83186" lon="5.44132">
        <ele>459</ele>
        <time>2015-03-01T10:04:30Z</time>
      </trkpt>
      <trkpt lat="49.83182" lon="5.4414">
        <ele>459</ele>
        <time>2015-03-01T10:04:36Z</time>
      </trkpt>
      <trkpt lat="49.83179" lon="5.44143">
        <ele>458</ele>
        <time>2015-03-01T10:04:42Z</time>
      </trkpt>
      <trkpt lat="49.83179" lon="5.44144">
        <ele>458</ele>
        <time>2015-03-01T10:04:47Z</time>
      </trkpt>
      <trkpt lat="49.83176" lon="5.44149">
        <ele>458</ele>
        <time>2015-03-01T10:04:53Z</time>
      </trkpt>
      <trkpt lat="49.83172" lon="5.44156">
        <ele>457</ele>
        <time>2015-03-01T10:04:58Z</time>
      </trkpt>
      <trkpt lat="49.83168" lon="5.44163">
        <ele>458</ele>
        <time>2015-03-01T10:05:03Z</time>
      </trkpt>
      <trkpt lat="49.83165" lon="5.44167">
        <ele>458</ele>
        <time>2015-03-01T10:05:08Z</time>
      </trkpt>
      <trkpt lat="49.83162" lon="5.44172">
        <ele>457</ele>
        <time>2015-03-01T10:05:14Z</time>
      </trkpt>
      <trkpt lat="49.83156" lon="5.4418">
        <ele>457</ele>
        <time>2015-03-01T10:05:20Z</time>
      </trkpt>
      <trkpt lat="49.83151" lon="5.44187">
        <ele>456</ele>
        <time>2015-03-01T10:05:26Z</time>
      </trkpt>
      <trkpt lat="49.83146" lon="5.44194">
        <ele>455</ele>
        <time>2015-03-01T10:05:32Z</time>
      </trkpt>
      <trkpt lat="49.8314" lon="5.44201">
        <ele>455</ele>
        <time>2015-03-01T10:05:37Z</time>
      </trkpt>
      <trkpt lat="49.83139" lon="5.44203">
        <ele>454</ele>
        <time>2015-03-01T10:05:43Z</time>
      </trkpt>
      <trkpt lat="49.83134" lon="5.44208">
        <ele>454</ele>
        <time>2015-03-01T10:05:48Z</time>
      </trkpt>
      <trkpt lat="49.8313" lon="5.44215">
        <ele>453</ele>
        <time>2015-03-01T10:05:53Z</time>
      </trkpt>
      <trkpt lat="49.83125" lon="5.44222">
        <ele>453</ele>
        <time>2015-03-01T10:05:59Z</time>
      </trkpt>
      <trkpt lat="49.83121" lon="5.44229">
        <ele>453</ele>
        <time>2015-03-01T10:06:04Z</time>
      </trkpt>
      <trkpt lat="49.83116" lon="5.44236">
        <ele>453</ele>
        <time>2015-03-01T10:06:10Z</time>
      </trkpt>
      <trkpt lat="49.83111" lon="5.44243">
        <ele>453</ele>
        <time>2015-03-01T10:06:15Z</time>
      </trkpt>
      <trkpt lat="49.83107" lon="5.44248">
        <ele>453</ele>
        <time>2015-03-01T10:06:20Z</time>
      </trkpt>
      <trkpt lat="49.83105" lon="5.44252">
        <ele>452</ele>
        <time>2015-03-01T10:06:26Z</time>
      </trkpt>
      <trkpt lat="49.831" lon="5.44259">
        <ele>452</ele>
        <time>2015-03-01T10:06:32Z</time>
      </trkpt>
      <trkpt lat="49.83095" lon="5.44266">
        <ele>452</ele>
        <time>2015-03-01T10:06:38Z</time>
      </trkpt>
      <trkpt lat="49.83091" lon="5.44274">
        <ele>453</ele>
        <time>2015-03-01T10:06:43Z</time>
      </trkpt>
      <trkpt lat="49.83086" lon="5.44282">
        <ele>452</ele>
        <time>2015-03-01T10:06:48Z</time>
      </trkpt>
      <trkpt lat="49.83083" lon="5.44289">
        <ele>452</ele>
        <time>2015-03-01T10:06:54Z</time>
      </trkpt>
      <trkpt lat="49.83079" lon="5.44296">
        <ele>452</ele>
        <time>2015-03-01T10:06:59Z</time>
      </trkpt>
      <trkpt lat="49.83074" lon="5.44303">
        <ele>451</ele>
        <time>2015-03-01T10:07:04Z</time>
      </trkpt>
      <trkpt lat="49.8307" lon="5.44311">
        <ele>451</ele>
        <time>2015-03-01T10:07:09Z</time>
      </trkpt>
      <trkpt lat="49.83066" lon="5.44318">
        <ele>452</ele>
        <time>2015-03-01T10:07:14Z</time>
      </trkpt>
      <trkpt lat="49.83062" lon="5.44324">
        <ele>452</ele>
        <time>2015-03-01T10:07:20Z</time>
      </trkpt>
      <trkpt lat="49.83056" lon="5.44332">
        <ele>451</ele>
        <time>2015-03-01T10:07:26Z</time>
      </trkpt>
      <trkpt lat="49.83051" lon="5.44339">
        <ele>452</ele>
        <time>2015-03-01T10:07:31Z</time>
      </trkpt>
      <trkpt lat="49.83047" lon="5.44346">
        <ele>451</ele>
        <time>2015-03-01T10:07:36Z</time>
      </trkpt>
      <trkpt lat="49.83043" lon="5.44351">
        <ele>451</ele>
        <time>2015-03-01T10:07:42Z</time>
      </trkpt>
      <trkpt lat="49.83037" lon="5.44358">
        <ele>451</ele>
        <time>2015-03-01T10:07:48Z</time>
      </trkpt>
      <trkpt lat="49.83031" lon="5.44364">
        <ele>452</ele>
        <time>2015-03-01T10:07:53Z</time>
      </trkpt>
      <trkpt lat="49.83027" lon="5.44368">
        <ele>452</ele>
        <time>2015-03-01T10:07:59Z</time>
      </trkpt>
      <trkpt lat="49.83022" lon="5.44374">
        <ele>452</ele>
        <time>2015-03-01T10:08:04Z</time>
      </trkpt>
      <trkpt lat="49.83015" lon="5.4438">
        <ele>452</ele>
        <time>2015-03-01T10:08:10Z</time>
      </trkpt>
      <trkpt lat="49.83012" lon="5.44383">
        <ele>453</ele>
        <time>2015-03-01T10:08:16Z</time>
      </trkpt>
      <trkpt lat="49.8301" lon="5.44385">
        <ele>452</ele>
        <time>2015-03-01T10:08:21Z</time>
      </trkpt>
      <trkpt lat="49.83005" lon="5.44391">
        <ele>453</ele>
        <time>2015-03-01T10:08:26Z</time>
      </trkpt>
      <trkpt lat="49.83002" lon="5.44393">
        <ele>453</ele>
        <time>2015-03-01T10:08:32Z</time>
      </trkpt>
      <trkpt lat="49.82996" lon="5.44399">
        <ele>452</ele>
        <time>2015-03-01T10:08:38Z</time>
      </trkpt>
      <trkpt lat="49.8299" lon="5.44404">
        <ele>451</ele>
        <time>2015-03-01T10:08:44Z</time>
      </trkpt>
      <trkpt lat="49.82985" lon="5.44408">
        <ele>451</ele>
        <time>2015-03-01T10:08:50Z</time>
      </trkpt>
      <trkpt lat="49.82978" lon="5.44412">
        <ele>451</ele>
        <time>2015-03-01T10:08:55Z</time>
      </trkpt>
      <trkpt lat="49.82973" lon="5.44417">
        <ele>451</ele>
        <time>2015-03-01T10:09:01Z</time>
      </trkpt>
      <trkpt lat="49.82966" lon="5.44422">
        <ele>452</ele>
        <time>2015-03-01T10:09:07Z</time>
      </trkpt>
      <trkpt lat="49.82965" lon="5.44422">
        <ele>451</ele>
        <time>2015-03-01T10:09:14Z</time>
      </trkpt>
      <trkpt lat="49.82962" lon="5.44424">
        <ele>451</ele>
        <time>2015-03-01T10:09:20Z</time>
      </trkpt>
      <trkpt lat="49.82956" lon="5.44429">
        <ele>452</ele>
        <time>2015-03-01T10:09:25Z</time>
      </trkpt>
      <trkpt lat="49.82951" lon="5.44433">
        <ele>452</ele>
        <time>2015-03-01T10:09:31Z</time>
      </trkpt>
      <trkpt lat="49.82947" lon="5.44437">
        <ele>451</ele>
        <time>2015-03-01T10:09:36Z</time>
      </trkpt>
      <trkpt lat="49.82944" lon="5.44439">
        <ele>451</ele>
        <time>2015-03-01T10:09:42Z</time>
      </trkpt>
      <trkpt lat="49.82943" lon="5.4444">
        <ele>451</ele>
        <time>2015-03-01T10:09:48Z</time>
      </trkpt>
      <trkpt lat="49.82941" lon="5.44442">
        <ele>451</ele>
        <time>2015-03-01T10:09:53Z</time>
      </trkpt>
      <trkpt lat="49.82937" lon="5.44446">
        <ele>451</ele>
        <time>2015-03-01T10:09:59Z</time>
      </trkpt>
      <trkpt lat="49.82932" lon="5.4445">
        <ele>451</ele>
        <time>2015-03-01T10:10:05Z</time>
      </trkpt>
      <trkpt lat="49.82928" lon="5.44453">
        <ele>452</ele>
        <time>2015-03-01T10:10:11Z</time>
      </trkpt>
      <trkpt lat="49.82924" lon="5.44456">
        <ele>451</ele>
        <time>2015-03-01T10:10:17Z</time>
      </trkpt>
      <trkpt lat="49.82923" lon="5.44457">
        <ele>451</ele>
        <time>2015-03-01T10:10:24Z</time>
      </trkpt>
      <trkpt lat="49.82923" lon="5.44457">
        <ele>452</ele>
        <time>2015-03-01T10:10:30Z</time>
      </trkpt>
      <trkpt lat="49.82923" lon="5.44457">
        <ele>452</ele>
        <time>2015-03-01T10:10:36Z</time>
      </trkpt>
      <trkpt lat="49.82923" lon="5.44456">
        <ele>452</ele>
        <time>2015-03-01T10:10:41Z</time>
      </trkpt>
      <trkpt lat="49.82923" lon="5.44456">
        <ele>452</ele>
        <time>2015-03-01T10:10:47Z</time>
      </trkpt>
      <trkpt lat="49.8292" lon="5.4446">
        <ele>451</ele>
        <time>2015-03-01T10:10:53Z</time>
      </trkpt>
      <trkpt lat="49.82915" lon="5.44463">
        <ele>451</ele>
        <time>2015-03-01T10:10:59Z</time>
      </trkpt>
      <trkpt lat="49.8291" lon="5.44469">
        <ele>451</ele>
        <time>2015-03-01T10:11:04Z</time>
      </trkpt>
      <trkpt lat="49.82906" lon="5.44472">
        <ele>451</ele>
        <time>2015-03-01T10:11:10Z</time>
      </trkpt>
      <trkpt lat="49.829" lon="5.44477">
        <ele>451</ele>
        <time>2015-03-01T10:11:16Z</time>
      </trkpt>
      <trkpt lat="49.82896" lon="5.44483">
        <ele>452</ele>
        <time>2015-03-01T10:11:22Z</time>
      </trkpt>
      <trkpt lat="49.82891" lon="5.4449">
        <ele>452</ele>
        <time>2015-03-01T10:11:28Z</time>
      </trkpt>
      <trkpt lat="49.82888" lon="5.44497">
        <ele>452</ele>
        <time>2015-03-01T10:11:33Z</time>
      </trkpt>
      <trkpt lat="49.82887" lon="5.44503">
        <ele>452</ele>
        <time>2015-03-01T10:11:39Z</time>
      </trkpt>
      <trkpt lat="49.8288" lon="5.44507">
        <ele>452</ele>
        <time>2015-03-01T10:11:44Z</time>
      </trkpt>
      <trkpt lat="49.82876" lon="5.44508">
        <ele>453</ele>
        <time>2015-03-01T10:11:50Z</time>
      </trkpt>
      <trkpt lat="49.82875" lon="5.44508">
        <ele>452</ele>
        <time>2015-03-01T10:11:57Z</time>
      </trkpt>
      <trkpt lat="49.82875" lon="5.44507">
        <ele>452</ele>
        <time>2015-03-01T10:12:03Z</time>
      </trkpt>
      <trkpt lat="49.82876" lon="5.44506">
        <ele>452</ele>
        <time>2015-03-01T10:12:08Z</time>
      </trkpt>
      <trkpt lat="49.82877" lon="5.44505">
        <ele>453</ele>
        <time>2015-03-01T10:12:14Z</time>
      </trkpt>
      <trkpt lat="49.82877" lon="5.44505">
        <ele>453</ele>
        <time>2015-03-01T10:12:20Z</time>
      </trkpt>
      <trkpt lat="49.82879" lon="5.44508">
        <ele>452</ele>
        <time>2015-03-01T10:12:26Z</time>
      </trkpt>
      <trkpt lat="49.82878" lon="5.44506">
        <ele>452</ele>
        <time>2015-03-01T10:12:32Z</time>
      </trkpt>
      <trkpt lat="49.82879" lon="5.44506">
        <ele>452</ele>
        <time>2015-03-01T10:12:38Z</time>
      </trkpt>
      <trkpt lat="49.82879" lon="5.44506">
        <ele>453</ele>
        <time>2015-03-01T10:12:43Z</time>
      </trkpt>
      <trkpt lat="49.82879" lon="5.44509">
        <ele>453</ele>
        <time>2015-03-01T10:12:48Z</time>
      </trkpt>
      <trkpt lat="49.8288" lon="5.44515">
        <ele>453</ele>
        <time>2015-03-01T10:12:55Z</time>
      </trkpt>
      <trkpt lat="49.82879" lon="5.44515">
        <ele>452</ele>
        <time>2015-03-01T10:13:04Z</time>
      </trkpt>
      <trkpt lat="49.82879" lon="5.44515">
        <ele>452</ele>
        <time>2015-03-01T10:13:11Z</time>
      </trkpt>
      <trkpt lat="49.82879" lon="5.44515">
        <ele>452</ele>
        <time>2015-03-01T10:13:17Z</time>
      </trkpt>
      <trkpt lat="49.82879" lon="5.44516">
        <ele>453</ele>
        <time>2015-03-01T10:13:23Z</time>
      </trkpt>
      <trkpt lat="49.82879" lon="5.44515">
        <ele>453</ele>
        <time>2015-03-01T10:13:29Z</time>
      </trkpt>
      <trkpt lat="49.82882" lon="5.44515">
        <ele>452</ele>
        <time>2015-03-01T10:13:35Z</time>
      </trkpt>
      <trkpt lat="49.82882" lon="5.44516">
        <ele>453</ele>
        <time>2015-03-01T10:13:41Z</time>
      </trkpt>
      <trkpt lat="49.8288" lon="5.44513">
        <ele>453</ele>
        <time>2015-03-01T10:13:47Z</time>
      </trkpt>
      <trkpt lat="49.8288" lon="5.44512">
        <ele>453</ele>
        <time>2015-03-01T10:13:53Z</time>
      </trkpt>
      <trkpt lat="49.82881" lon="5.44514">
        <ele>453</ele>
        <time>2015-03-01T10:13:59Z</time>
      </trkpt>
      <trkpt lat="49.8288" lon="5.44515">
        <ele>453</ele>
        <time>2015-03-01T10:14:04Z</time>
      </trkpt>
      <trkpt lat="49.8288" lon="5.44516">
        <ele>452</ele>
        <time>2015-03-01T10:14:11Z</time>
      </trkpt>
      <trkpt lat="49.8288" lon="5.44516">
        <ele>452</ele>
        <time>2015-03-01T10:14:17Z</time>
      </trkpt>
      <trkpt lat="49.82883" lon="5.44517">
        <ele>452</ele>
        <time>2015-03-01T10:14:22Z</time>
      </trkpt>
      <trkpt lat="49.82879" lon="5.44523">
        <ele>452</ele>
        <time>2015-03-01T10:14:28Z</time>
      </trkpt>
      <trkpt lat="49.82874" lon="5.44527">
        <ele>452</ele>
        <time>2015-03-01T10:14:33Z</time>
      </trkpt>
      <trkpt lat="49.82867" lon="5.4453">
        <ele>452</ele>
        <time>2015-03-01T10:14:38Z</time>
      </trkpt>
      <trkpt lat="49.82861" lon="5.44534">
        <ele>453</ele>
        <time>2015-03-01T10:14:43Z</time>
      </trkpt>
      <trkpt lat="49.82856" lon="5.44535">
        <ele>453</ele>
        <time>2015-03-01T10:14:49Z</time>
      </trkpt>
      <trkpt lat="49.82855" lon="5.44536">
        <ele>452</ele>
        <time>2015-03-01T10:14:57Z</time>
      </trkpt>
      <trkpt lat="49.82848" lon="5.44538">
        <ele>453</ele>
        <time>2015-03-01T10:15:03Z</time>
      </trkpt>
      <trkpt lat="49.82842" lon="5.44541">
        <ele>453</ele>
        <time>2015-03-01T10:15:09Z</time>
      </trkpt>
      <trkpt lat="49.8284" lon="5.4454">
        <ele>454</ele>
        <time>2015-03-01T10:15:14Z</time>
      </trkpt>
      <trkpt lat="49.82839" lon="5.4454">
        <ele>453</ele>
        <time>2015-03-01T10:15:23Z</time>
      </trkpt>
      <trkpt lat="49.82839" lon="5.4454">
        <ele>453</ele>
        <time>2015-03-01T10:15:28Z</time>
      </trkpt>
      <trkpt lat="49.82842" lon="5.44539">
        <ele>453</ele>
        <time>2015-03-01T10:15:34Z</time>
      </trkpt>
      <trkpt lat="49.82848" lon="5.44537">
        <ele>453</ele>
        <time>2015-03-01T10:15:40Z</time>
      </trkpt>
      <trkpt lat="49.82854" lon="5.44534">
        <ele>453</ele>
        <time>2015-03-01T10:15:46Z</time>
      </trkpt>
      <trkpt lat="49.82861" lon="5.44531">
        <ele>451</ele>
        <time>2015-03-01T10:15:52Z</time>
      </trkpt>
      <trkpt lat="49.82867" lon="5.44528">
        <ele>452</ele>
        <time>2015-03-01T10:15:58Z</time>
      </trkpt>
      <trkpt lat="49.82873" lon="5.44524">
        <ele>452</ele>
        <time>2015-03-01T10:16:04Z</time>
      </trkpt>
      <trkpt lat="49.82878" lon="5.44521">
        <ele>452</ele>
        <time>2015-03-01T10:16:10Z</time>
      </trkpt>
      <trkpt lat="49.82883" lon="5.44519">
        <ele>451</ele>
        <time>2015-03-01T10:16:15Z</time>
      </trkpt>
      <trkpt lat="49.82888" lon="5.44521">
        <ele>451</ele>
        <time>2015-03-01T10:16:20Z</time>
      </trkpt>
      <trkpt lat="49.8289" lon="5.44527">
        <ele>451</ele>
        <time>2015-03-01T10:16:25Z</time>
      </trkpt>
      <trkpt lat="49.82893" lon="5.44534">
        <ele>451</ele>
        <time>2015-03-01T10:16:31Z</time>
      </trkpt>
      <trkpt lat="49.82895" lon="5.44543">
        <ele>451</ele>
        <time>2015-03-01T10:16:37Z</time>
      </trkpt>
      <trkpt lat="49.82897" lon="5.44547">
        <ele>450</ele>
        <time>2015-03-01T10:16:42Z</time>
      </trkpt>
      <trkpt lat="49.82901" lon="5.44552">
        <ele>450</ele>
        <time>2015-03-01T10:16:48Z</time>
      </trkpt>
      <trkpt lat="49.82905" lon="5.44558">
        <ele>451</ele>
        <time>2015-03-01T10:16:54Z</time>
      </trkpt>
      <trkpt lat="49.82909" lon="5.44565">
        <ele>451</ele>
        <time>2015-03-01T10:16:59Z</time>
      </trkpt>
      <trkpt lat="49.82911" lon="5.44571">
        <ele>450</ele>
        <time>2015-03-01T10:17:04Z</time>
      </trkpt>
      <trkpt lat="49.82915" lon="5.44577">
        <ele>449</ele>
        <time>2015-03-01T10:17:09Z</time>
      </trkpt>
      <trkpt lat="49.82917" lon="5.44584">
        <ele>449</ele>
        <time>2015-03-01T10:17:14Z</time>
      </trkpt>
      <trkpt lat="49.82921" lon="5.4459">
        <ele>448</ele>
        <time>2015-03-01T10:17:19Z</time>
      </trkpt>
      <trkpt lat="49.82925" lon="5.44597">
        <ele>448</ele>
        <time>2015-03-01T10:17:24Z</time>
      </trkpt>
      <trkpt lat="49.8293" lon="5.44604">
        <ele>447</ele>
        <time>2015-03-01T10:17:30Z</time>
      </trkpt>
      <trkpt lat="49.82935" lon="5.44612">
        <ele>447</ele>
        <time>2015-03-01T10:17:35Z</time>
      </trkpt>
      <trkpt lat="49.8294" lon="5.44619">
        <ele>447</ele>
        <time>2015-03-01T10:17:41Z</time>
      </trkpt>
      <trkpt lat="49.82942" lon="5.44624">
        <ele>446</ele>
        <time>2015-03-01T10:17:47Z</time>
      </trkpt>
      <trkpt lat="49.82946" lon="5.44631">
        <ele>446</ele>
        <time>2015-03-01T10:17:52Z</time>
      </trkpt>
      <trkpt lat="49.82948" lon="5.44636">
        <ele>446</ele>
        <time>2015-03-01T10:17:58Z</time>
      </trkpt>
      <trkpt lat="49.82951" lon="5.44642">
        <ele>447</ele>
        <time>2015-03-01T10:18:04Z</time>
      </trkpt>
      <trkpt lat="49.82955" lon="5.4465">
        <ele>445</ele>
        <time>2015-03-01T10:18:10Z</time>
      </trkpt>
      <trkpt lat="49.82958" lon="5.44659">
        <ele>445</ele>
        <time>2015-03-01T10:18:16Z</time>
      </trkpt>
      <trkpt lat="49.82962" lon="5.44665">
        <ele>444</ele>
        <time>2015-03-01T10:18:22Z</time>
      </trkpt>
      <trkpt lat="49.82966" lon="5.44674">
        <ele>444</ele>
        <time>2015-03-01T10:18:28Z</time>
      </trkpt>
      <trkpt lat="49.82971" lon="5.4468">
        <ele>444</ele>
        <time>2015-03-01T10:18:33Z</time>
      </trkpt>
      <trkpt lat="49.82974" lon="5.44688">
        <ele>444</ele>
        <time>2015-03-01T10:18:39Z</time>
      </trkpt>
      <trkpt lat="49.82978" lon="5.44693">
        <ele>443</ele>
        <time>2015-03-01T10:18:44Z</time>
      </trkpt>
      <trkpt lat="49.82983" lon="5.44699">
        <ele>443</ele>
        <time>2015-03-01T10:18:50Z</time>
      </trkpt>
      <trkpt lat="49.82986" lon="5.44707">
        <ele>443</ele>
        <time>2015-03-01T10:18:55Z</time>
      </trkpt>
      <trkpt lat="49.82991" lon="5.44714">
        <ele>443</ele>
        <time>2015-03-01T10:19:00Z</time>
      </trkpt>
      <trkpt lat="49.82995" lon="5.4472">
        <ele>443</ele>
        <time>2015-03-01T10:19:06Z</time>
      </trkpt>
      <trkpt lat="49.82998" lon="5.44725">
        <ele>442</ele>
        <time>2015-03-01T10:19:11Z</time>
      </trkpt>
      <trkpt lat="49.83003" lon="5.44731">
        <ele>442</ele>
        <time>2015-03-01T10:19:17Z</time>
      </trkpt>
      <trkpt lat="49.83007" lon="5.44738">
        <ele>442</ele>
        <time>2015-03-01T10:19:22Z</time>
      </trkpt>
      <trkpt lat="49.83011" lon="5.44745">
        <ele>442</ele>
        <time>2015-03-01T10:19:28Z</time>
      </trkpt>
      <trkpt lat="49.83014" lon="5.44752">
        <ele>441</ele>
        <time>2015-03-01T10:19:33Z</time>
      </trkpt>
      <trkpt lat="49.83018" lon="5.44759">
        <ele>441</ele>
        <time>2015-03-01T10:19:38Z</time>
      </trkpt>
      <trkpt lat="49.83022" lon="5.44767">
        <ele>440</ele>
        <time>2015-03-01T10:19:44Z</time>
      </trkpt>
      <trkpt lat="49.83026" lon="5.44776">
        <ele>439</ele>
        <time>2015-03-01T10:19:49Z</time>
      </trkpt>
      <trkpt lat="49.8303" lon="5.44787">
        <ele>440</ele>
        <time>2015-03-01T10:19:55Z</time>
      </trkpt>
      <trkpt lat="49.83033" lon="5.44796">
        <ele>439</ele>
        <time>2015-03-01T10:20:00Z</time>
      </trkpt>
      <trkpt lat="49.83035" lon="5.44802">
        <ele>438</ele>
        <time>2015-03-01T10:20:06Z</time>
      </trkpt>
      <trkpt lat="49.83037" lon="5.44806">
        <ele>438</ele>
        <time>2015-03-01T10:20:12Z</time>
      </trkpt>
      <trkpt lat="49.83039" lon="5.44814">
        <ele>438</ele>
        <time>2015-03-01T10:20:17Z</time>
      </trkpt>
      <trkpt lat="49.83041" lon="5.44822">
        <ele>437</ele>
        <time>2015-03-01T10:20:22Z</time>
      </trkpt>
      <trkpt lat="49.83044" lon="5.4483">
        <ele>437</ele>
        <time>2015-03-01T10:20:28Z</time>
      </trkpt>
      <trkpt lat="49.83046" lon="5.44838">
        <ele>437</ele>
        <time>2015-03-01T10:20:34Z</time>
      </trkpt>
      <trkpt lat="49.83048" lon="5.44845">
        <ele>436</ele>
        <time>2015-03-01T10:20:39Z</time>
      </trkpt>
      <trkpt lat="49.83051" lon="5.44854">
        <ele>435</ele>
        <time>2015-03-01T10:20:44Z</time>
      </trkpt>
      <trkpt lat="49.83053" lon="5.44861">
        <ele>435</ele>
        <time>2015-03-01T10:20:49Z</time>
      </trkpt>
      <trkpt lat="49.83056" lon="5.44867">
        <ele>434</ele>
        <time>2015-03-01T10:20:55Z</time>
      </trkpt>
      <trkpt lat="49.83059" lon="5.44874">
        <ele>434</ele>
        <time>2015-03-01T10:21:00Z</time>
      </trkpt>
      <trkpt lat="49.83062" lon="5.44879">
        <ele>435</ele>
        <time>2015-03-01T10:21:06Z</time>
      </trkpt>
      <trkpt lat="49.83064" lon="5.44881">
        <ele>435</ele>
        <time>2015-03-01T10:21:11Z</time>
      </trkpt>
      <trkpt lat="49.83065" lon="5.44882">
        <ele>434</ele>
        <time>2015-03-01T10:21:16Z</time>
      </trkpt>
      <trkpt lat="49.83065" lon="5.44882">
        <ele>433</ele>
        <time>2015-03-01T10:21:22Z</time>
      </trkpt>
      <trkpt lat="49.83066" lon="5.44882">
        <ele>433</ele>
        <time>2015-03-01T10:21:28Z</time>
      </trkpt>
      <trkpt lat="49.83066" lon="5.44881">
        <ele>434</ele>
        <time>2015-03-01T10:21:33Z</time>
      </trkpt>
      <trkpt lat="49.83067" lon="5.44881">
        <ele>434</ele>
        <time>2015-03-01T10:21:39Z</time>
      </trkpt>
      <trkpt lat="49.8307" lon="5.44887">
        <ele>433</ele>
        <time>2015-03-01T10:21:44Z</time>
      </trkpt>
      <trkpt lat="49.83073" lon="5.44895">
        <ele>434</ele>
        <time>2015-03-01T10:21:50Z</time>
      </trkpt>
      <trkpt lat="49.83077" lon="5.44902">
        <ele>435</ele>
        <time>2015-03-01T10:21:56Z</time>
      </trkpt>
      <trkpt lat="49.83081" lon="5.44911">
        <ele>433</ele>
        <time>2015-03-01T10:22:01Z</time>
      </trkpt>
      <trkpt lat="49.83085" lon="5.44917">
        <ele>433</ele>
        <time>2015-03-01T10:22:06Z</time>
      </trkpt>
      <trkpt lat="49.8309" lon="5.44925">
        <ele>432</ele>
        <time>2015-03-01T10:22:12Z</time>
      </trkpt>
      <trkpt lat="49.83095" lon="5.44934">
        <ele>433</ele>
        <time>2015-03-01T10:22:17Z</time>
      </trkpt>
      <trkpt lat="49.83098" lon="5.4494">
        <ele>432</ele>
        <time>2015-03-01T10:22:23Z</time>
      </trkpt>
      <trkpt lat="49.831" lon="5.44942">
        <ele>432</ele>
        <time>2015-03-01T10:22:28Z</time>
      </trkpt>
      <trkpt lat="49.83101" lon="5.44944">
        <ele>432</ele>
        <time>2015-03-01T10:22:35Z</time>
      </trkpt>
      <trkpt lat="49.83103" lon="5.44948">
        <ele>433</ele>
        <time>2015-03-01T10:22:40Z</time>
      </trkpt>
      <trkpt lat="49.83105" lon="5.44951">
        <ele>433</ele>
        <time>2015-03-01T10:22:46Z</time>
      </trkpt>
      <trkpt lat="49.83106" lon="5.44951">
        <ele>433</ele>
        <time>2015-03-01T10:22:51Z</time>
      </trkpt>
      <trkpt lat="49.83109" lon="5.44955">
        <ele>433</ele>
        <time>2015-03-01T10:22:57Z</time>
      </trkpt>
      <trkpt lat="49.83112" lon="5.44964">
        <ele>433</ele>
        <time>2015-03-01T10:23:03Z</time>
      </trkpt>
      <trkpt lat="49.83117" lon="5.44972">
        <ele>433</ele>
        <time>2015-03-01T10:23:09Z</time>
      </trkpt>
      <trkpt lat="49.8312" lon="5.4498">
        <ele>434</ele>
        <time>2015-03-01T10:23:14Z</time>
      </trkpt>
      <trkpt lat="49.83123" lon="5.44989">
        <ele>435</ele>
        <time>2015-03-01T10:23:19Z</time>
      </trkpt>
      <trkpt lat="49.83126" lon="5.44997">
        <ele>435</ele>
        <time>2015-03-01T10:23:25Z</time>
      </trkpt>
      <trkpt lat="49.83129" lon="5.45006">
        <ele>435</ele>
        <time>2015-03-01T10:23:31Z</time>
      </trkpt>
      <trkpt lat="49.83131" lon="5.4501">
        <ele>436</ele>
        <time>2015-03-01T10:23:36Z</time>
      </trkpt>
      <trkpt lat="49.83134" lon="5.45016">
        <ele>436</ele>
        <time>2015-03-01T10:23:41Z</time>
      </trkpt>
      <trkpt lat="49.83137" lon="5.4502">
        <ele>436</ele>
        <time>2015-03-01T10:23:47Z</time>
      </trkpt>
      <trkpt lat="49.83141" lon="5.45028">
        <ele>436</ele>
        <time>2015-03-01T10:23:53Z</time>
      </trkpt>
      <trkpt lat="49.83145" lon="5.45035">
        <ele>436</ele>
        <time>2015-03-01T10:23:58Z</time>
      </trkpt>
      <trkpt lat="49.83149" lon="5.45043">
        <ele>437</ele>
        <time>2015-03-01T10:24:03Z</time>
      </trkpt>
      <trkpt lat="49.83154" lon="5.45051">
        <ele>437</ele>
        <time>2015-03-01T10:24:10Z</time>
      </trkpt>
      <trkpt lat="49.83158" lon="5.45057">
        <ele>437</ele>
        <time>2015-03-01T10:24:16Z</time>
      </trkpt>
      <trkpt lat="49.83161" lon="5.45063">
        <ele>437</ele>
        <time>2015-03-01T10:24:21Z</time>
      </trkpt>
      <trkpt lat="49.83162" lon="5.45071">
        <ele>437</ele>
        <time>2015-03-01T10:24:27Z</time>
      </trkpt>
      <trkpt lat="49.83166" lon="5.45078">
        <ele>437</ele>
        <time>2015-03-01T10:24:32Z</time>
      </trkpt>
      <trkpt lat="49.83168" lon="5.45085">
        <ele>438</ele>
        <time>2015-03-01T10:24:38Z</time>
      </trkpt>
      <trkpt lat="49.83171" lon="5.45097">
        <ele>438</ele>
        <time>2015-03-01T10:24:44Z</time>
      </trkpt>
      <trkpt lat="49.83175" lon="5.45104">
        <ele>437</ele>
        <time>2015-03-01T10:24:50Z</time>
      </trkpt>
      <trkpt lat="49.83178" lon="5.45111">
        <ele>437</ele>
        <time>2015-03-01T10:24:55Z</time>
      </trkpt>
      <trkpt lat="49.83183" lon="5.45119">
        <ele>438</ele>
        <time>2015-03-01T10:25:00Z</time>
      </trkpt>
      <trkpt lat="49.83186" lon="5.45126">
        <ele>439</ele>
        <time>2015-03-01T10:25:05Z</time>
      </trkpt>
      <trkpt lat="49.83189" lon="5.45133">
        <ele>439</ele>
        <time>2015-03-01T10:25:11Z</time>
      </trkpt>
      <trkpt lat="49.83194" lon="5.4514">
        <ele>439</ele>
        <time>2015-03-01T10:25:16Z</time>
      </trkpt>
      <trkpt lat="49.83197" lon="5.45146">
        <ele>440</ele>
        <time>2015-03-01T10:25:22Z</time>
      </trkpt>
      <trkpt lat="49.83201" lon="5.45156">
        <ele>440</ele>
        <time>2015-03-01T10:25:28Z</time>
      </trkpt>
      <trkpt lat="49.83204" lon="5.45161">
        <ele>439</ele>
        <time>2015-03-01T10:25:33Z</time>
      </trkpt>
      <trkpt lat="49.83208" lon="5.45165">
        <ele>439</ele>
        <time>2015-03-01T10:25:38Z</time>
      </trkpt>
      <trkpt lat="49.83212" lon="5.45168">
        <ele>439</ele>
        <time>2015-03-01T10:25:44Z</time>
      </trkpt>
      <trkpt lat="49.83217" lon="5.4517">
        <ele>438</ele>
        <time>2015-03-01T10:25:49Z</time>
      </trkpt>
      <trkpt lat="49.83223" lon="5.45171">
        <ele>438</ele>
        <time>2015-03-01T10:25:55Z</time>
      </trkpt>
      <trkpt lat="49.8323" lon="5.45172">
        <ele>438</ele>
        <time>2015-03-01T10:26:00Z</time>
      </trkpt>
      <trkpt lat="49.83236" lon="5.45173">
        <ele>438</ele>
        <time>2015-03-01T10:26:05Z</time>
      </trkpt>
      <trkpt lat="49.83242" lon="5.45171">
        <ele>438</ele>
        <time>2015-03-01T10:26:11Z</time>
      </trkpt>
      <trkpt lat="49.83247" lon="5.4517">
        <ele>439</ele>
        <time>2015-03-01T10:26:17Z</time>
      </trkpt>
      <trkpt lat="49.83252" lon="5.45168">
        <ele>437</ele>
        <time>2015-03-01T10:26:22Z</time>
      </trkpt>
      <trkpt lat="49.83257" lon="5.45164">
        <ele>435</ele>
        <time>2015-03-01T10:26:27Z</time>
      </trkpt>
      <trkpt lat="49.83261" lon="5.45159">
        <ele>435</ele>
        <time>2015-03-01T10:26:32Z</time>
      </trkpt>
      <trkpt lat="49.83266" lon="5.45155">
        <ele>435</ele>
        <time>2015-03-01T10:26:38Z</time>
      </trkpt>
      <trkpt lat="49.83271" lon="5.45149">
        <ele>435</ele>
        <time>2015-03-01T10:26:43Z</time>
      </trkpt>
      <trkpt lat="49.83276" lon="5.45144">
        <ele>434</ele>
        <time>2015-03-01T10:26:48Z</time>
      </trkpt>
      <trkpt lat="49.83281" lon="5.45139">
        <ele>434</ele>
        <time>2015-03-01T10:26:54Z</time>
      </trkpt>
      <trkpt lat="49.83286" lon="5.45132">
        <ele>433</ele>
        <time>2015-03-01T10:26:59Z</time>
      </trkpt>
      <trkpt lat="49.83291" lon="5.45129">
        <ele>433</ele>
        <time>2015-03-01T10:27:04Z</time>
      </trkpt>
      <trkpt lat="49.83294" lon="5.45125">
        <ele>433</ele>
        <time>2015-03-01T10:27:09Z</time>
      </trkpt>
      <trkpt lat="49.833" lon="5.4512">
        <ele>433</ele>
        <time>2015-03-01T10:27:15Z</time>
      </trkpt>
      <trkpt lat="49.83305" lon="5.45115">
        <ele>432</ele>
        <time>2015-03-01T10:27:20Z</time>
      </trkpt>
      <trkpt lat="49.83311" lon="5.45111">
        <ele>432</ele>
        <time>2015-03-01T10:27:25Z</time>
      </trkpt>
      <trkpt lat="49.83318" lon="5.45105">
        <ele>432</ele>
        <time>2015-03-01T10:27:31Z</time>
      </trkpt>
      <trkpt lat="49.83324" lon="5.45101">
        <ele>432</ele>
        <time>2015-03-01T10:27:36Z</time>
      </trkpt>
      <trkpt lat="49.83328" lon="5.45096">
        <ele>431</ele>
        <time>2015-03-01T10:27:41Z</time>
      </trkpt>
      <trkpt lat="49.83333" lon="5.45091">
        <ele>431</ele>
        <time>2015-03-01T10:27:47Z</time>
      </trkpt>
      <trkpt lat="49.83339" lon="5.45087">
        <ele>432</ele>
        <time>2015-03-01T10:27:53Z</time>
      </trkpt>
      <trkpt lat="49.83345" lon="5.45083">
        <ele>432</ele>
        <time>2015-03-01T10:27:58Z</time>
      </trkpt>
      <trkpt lat="49.83351" lon="5.45077">
        <ele>431</ele>
        <time>2015-03-01T10:28:04Z</time>
      </trkpt>
      <trkpt lat="49.83358" lon="5.45073">
        <ele>431</ele>
        <time>2015-03-01T10:28:09Z</time>
      </trkpt>
      <trkpt lat="49.83363" lon="5.45069">
        <ele>431</ele>
        <time>2015-03-01T10:28:16Z</time>
      </trkpt>
      <trkpt lat="49.83369" lon="5.45064">
        <ele>431</ele>
        <time>2015-03-01T10:28:21Z</time>
      </trkpt>
      <trkpt lat="49.83373" lon="5.45061">
        <ele>431</ele>
        <time>2015-03-01T10:28:26Z</time>
      </trkpt>
      <trkpt lat="49.8338" lon="5.45057">
        <ele>431</ele>
        <time>2015-03-01T10:28:32Z</time>
      </trkpt>
      <trkpt lat="49.83385" lon="5.45053">
        <ele>431</ele>
        <time>2015-03-01T10:28:37Z</time>
      </trkpt>
      <trkpt lat="49.8339" lon="5.45048">
        <ele>430</ele>
        <time>2015-03-01T10:28:43Z</time>
      </trkpt>
      <trkpt lat="49.83394" lon="5.45046">
        <ele>430</ele>
        <time>2015-03-01T10:28:48Z</time>
      </trkpt>
      <trkpt lat="49.83398" lon="5.45044">
        <ele>430</ele>
        <time>2015-03-01T10:28:53Z</time>
      </trkpt>
      <trkpt lat="49.83402" lon="5.45039">
        <ele>430</ele>
        <time>2015-03-01T10:28:58Z</time>
      </trkpt>
      <trkpt lat="49.83408" lon="5.45033">
        <ele>429</ele>
        <time>2015-03-01T10:29:04Z</time>
      </trkpt>
      <trkpt lat="49.83413" lon="5.45028">
        <ele>429</ele>
        <time>2015-03-01T10:29:09Z</time>
      </trkpt>
      <trkpt lat="49.83416" lon="5.45024">
        <ele>430</ele>
        <time>2015-03-01T10:29:14Z</time>
      </trkpt>
      <trkpt lat="49.83419" lon="5.45022">
        <ele>430</ele>
        <time>2015-03-01T10:29:20Z</time>
      </trkpt>
      <trkpt lat="49.83421" lon="5.45021">
        <ele>430</ele>
        <time>2015-03-01T10:29:25Z</time>
      </trkpt>
      <trkpt lat="49.83424" lon="5.4502">
        <ele>430</ele>
        <time>2015-03-01T10:29:30Z</time>
      </trkpt>
      <trkpt lat="49.83426" lon="5.45019">
        <ele>430</ele>
        <time>2015-03-01T10:29:36Z</time>
      </trkpt>
      <trkpt lat="49.83428" lon="5.45017">
        <ele>430</ele>
        <time>2015-03-01T10:29:42Z</time>
      </trkpt>
      <trkpt lat="49.8343" lon="5.45012">
        <ele>430</ele>
        <time>2015-03-01T10:29:47Z</time>
      </trkpt>
      <trkpt lat="49.83432" lon="5.45006">
        <ele>429</ele>
        <time>2015-03-01T10:29:53Z</time>
      </trkpt>
      <trkpt lat="49.83434" lon="5.44998">
        <ele>429</ele>
        <time>2015-03-01T10:29:58Z</time>
      </trkpt>
      <trkpt lat="49.83435" lon="5.44991">
        <ele>429</ele>
        <time>2015-03-01T10:30:03Z</time>
      </trkpt>
      <trkpt lat="49.83437" lon="5.44984">
        <ele>429</ele>
        <time>2015-03-01T10:30:08Z</time>
      </trkpt>
      <trkpt lat="49.83437" lon="5.44977">
        <ele>429</ele>
        <time>2015-03-01T10:30:14Z</time>
      </trkpt>
      <trkpt lat="49.83437" lon="5.44972">
        <ele>429</ele>
        <time>2015-03-01T10:30:19Z</time>
      </trkpt>
      <trkpt lat="49.83438" lon="5.44966">
        <ele>430</ele>
        <time>2015-03-01T10:30:26Z</time>
      </trkpt>
      <trkpt lat="49.8344" lon="5.44959">
        <ele>429</ele>
        <time>2015-03-01T10:30:31Z</time>
      </trkpt>
      <trkpt lat="49.83441" lon="5.44953">
        <ele>430</ele>
        <time>2015-03-01T10:30:36Z</time>
      </trkpt>
      <trkpt lat="49.83443" lon="5.44945">
        <ele>430</ele>
        <time>2015-03-01T10:30:42Z</time>
      </trkpt>
      <trkpt lat="49.83445" lon="5.44938">
        <ele>430</ele>
        <time>2015-03-01T10:30:47Z</time>
      </trkpt>
      <trkpt lat="49.83445" lon="5.44936">
        <ele>430</ele>
        <time>2015-03-01T10:30:53Z</time>
      </trkpt>
      <trkpt lat="49.83445" lon="5.44932">
        <ele>430</ele>
        <time>2015-03-01T10:30:59Z</time>
      </trkpt>
      <trkpt lat="49.83446" lon="5.44922">
        <ele>429</ele>
        <time>2015-03-01T10:31:04Z</time>
      </trkpt>
      <trkpt lat="49.83448" lon="5.44914">
        <ele>430</ele>
        <time>2015-03-01T10:31:10Z</time>
      </trkpt>
      <trkpt lat="49.83448" lon="5.44906">
        <ele>430</ele>
        <time>2015-03-01T10:31:15Z</time>
      </trkpt>
      <trkpt lat="49.83449" lon="5.449">
        <ele>430</ele>
        <time>2015-03-01T10:31:21Z</time>
      </trkpt>
      <trkpt lat="49.83449" lon="5.44897">
        <ele>431</ele>
        <time>2015-03-01T10:31:26Z</time>
      </trkpt>
      <trkpt lat="49.83449" lon="5.44893">
        <ele>430</ele>
        <time>2015-03-01T10:31:32Z</time>
      </trkpt>
      <trkpt lat="49.83451" lon="5.44887">
        <ele>430</ele>
        <time>2015-03-01T10:31:37Z</time>
      </trkpt>
      <trkpt lat="49.83455" lon="5.4488">
        <ele>431</ele>
        <time>2015-03-01T10:31:42Z</time>
      </trkpt>
      <trkpt lat="49.83457" lon="5.44873">
        <ele>430</ele>
        <time>2015-03-01T10:31:48Z</time>
      </trkpt>
      <trkpt lat="49.83458" lon="5.44867">
        <ele>430</ele>
        <time>2015-03-01T10:31:53Z</time>
      </trkpt>
      <trkpt lat="49.83461" lon="5.4486">
        <ele>430</ele>
        <time>2015-03-01T10:32:00Z</time>
      </trkpt>
      <trkpt lat="49.83465" lon="5.44856">
        <ele>431</ele>
        <time>2015-03-01T10:32:06Z</time>
      </trkpt>
      <trkpt lat="49.83469" lon="5.44851">
        <ele>431</ele>
        <time>2015-03-01T10:32:12Z</time>
      </trkpt>
      <trkpt lat="49.83473" lon="5.44848">
        <ele>431</ele>
        <time>2015-03-01T10:32:17Z</time>
      </trkpt>
      <trkpt lat="49.83477" lon="5.44843">
        <ele>432</ele>
        <time>2015-03-01T10:32:23Z</time>
      </trkpt>
      <trkpt lat="49.8348" lon="5.4484">
        <ele>432</ele>
        <time>2015-03-01T10:32:28Z</time>
      </trkpt>
      <trkpt lat="49.83486" lon="5.44838">
        <ele>432</ele>
        <time>2015-03-01T10:32:33Z</time>
      </trkpt>
      <trkpt lat="49.83491" lon="5.44835">
        <ele>432</ele>
        <time>2015-03-01T10:32:38Z</time>
      </trkpt>
      <trkpt lat="49.83498" lon="5.44832">
        <ele>432</ele>
        <time>2015-03-01T10:32:44Z</time>
      </trkpt>
      <trkpt lat="49.83504" lon="5.4483">
        <ele>432</ele>
        <time>2015-03-01T10:32:51Z</time>
      </trkpt>
      <trkpt lat="49.8351" lon="5.44826">
        <ele>433</ele>
        <time>2015-03-01T10:32:56Z</time>
      </trkpt>
      <trkpt lat="49.83515" lon="5.44823">
        <ele>434</ele>
        <time>2015-03-01T10:33:02Z</time>
      </trkpt>
      <trkpt lat="49.83519" lon="5.44821">
        <ele>435</ele>
        <time>2015-03-01T10:33:08Z</time>
      </trkpt>
      <trkpt lat="49.83525" lon="5.44818">
        <ele>435</ele>
        <time>2015-03-01T10:33:13Z</time>
      </trkpt>
      <trkpt lat="49.83529" lon="5.44816">
        <ele>434</ele>
        <time>2015-03-01T10:33:18Z</time>
      </trkpt>
      <trkpt lat="49.83535" lon="5.44814">
        <ele>434</ele>
        <time>2015-03-01T10:33:24Z</time>
      </trkpt>
      <trkpt lat="49.8354" lon="5.44812">
        <ele>434</ele>
        <time>2015-03-01T10:33:29Z</time>
      </trkpt>
      <trkpt lat="49.83547" lon="5.44809">
        <ele>435</ele>
        <time>2015-03-01T10:33:35Z</time>
      </trkpt>
      <trkpt lat="49.83553" lon="5.44807">
        <ele>435</ele>
        <time>2015-03-01T10:33:40Z</time>
      </trkpt>
      <trkpt lat="49.8356" lon="5.44804">
        <ele>435</ele>
        <time>2015-03-01T10:33:46Z</time>
      </trkpt>
      <trkpt lat="49.83565" lon="5.44801">
        <ele>435</ele>
        <time>2015-03-01T10:33:51Z</time>
      </trkpt>
      <trkpt lat="49.8357" lon="5.44797">
        <ele>435</ele>
        <time>2015-03-01T10:33:56Z</time>
      </trkpt>
      <trkpt lat="49.83575" lon="5.44793">
        <ele>436</ele>
        <time>2015-03-01T10:34:02Z</time>
      </trkpt>
      <trkpt lat="49.8358" lon="5.44788">
        <ele>436</ele>
        <time>2015-03-01T10:34:07Z</time>
      </trkpt>
      <trkpt lat="49.83586" lon="5.44784">
        <ele>436</ele>
        <time>2015-03-01T10:34:12Z</time>
      </trkpt>
      <trkpt lat="49.83592" lon="5.4478">
        <ele>436</ele>
        <time>2015-03-01T10:34:18Z</time>
      </trkpt>
      <trkpt lat="49.83597" lon="5.44775">
        <ele>436</ele>
        <time>2015-03-01T10:34:24Z</time>
      </trkpt>
      <trkpt lat="49.83603" lon="5.44769">
        <ele>436</ele>
        <time>2015-03-01T10:34:29Z</time>
      </trkpt>
      <trkpt lat="49.83609" lon="5.44766">
        <ele>437</ele>
        <time>2015-03-01T10:34:34Z</time>
      </trkpt>
      <trkpt lat="49.83615" lon="5.44761">
        <ele>437</ele>
        <time>2015-03-01T10:34:40Z</time>
      </trkpt>
      <trkpt lat="49.8362" lon="5.44755">
        <ele>437</ele>
        <time>2015-03-01T10:34:46Z</time>
      </trkpt>
      <trkpt lat="49.83627" lon="5.4475">
        <ele>438</ele>
        <time>2015-03-01T10:34:53Z</time>
      </trkpt>
      <trkpt lat="49.83632" lon="5.44744">
        <ele>438</ele>
        <time>2015-03-01T10:34:58Z</time>
      </trkpt>
      <trkpt lat="49.83636" lon="5.44739">
        <ele>439</ele>
        <time>2015-03-01T10:35:03Z</time>
      </trkpt>
      <trkpt lat="49.8364" lon="5.44734">
        <ele>439</ele>
        <time>2015-03-01T10:35:08Z</time>
      </trkpt>
      <trkpt lat="49.83645" lon="5.4473">
        <ele>440</ele>
        <time>2015-03-01T10:35:13Z</time>
      </trkpt>
      <trkpt lat="49.83652" lon="5.44725">
        <ele>440</ele>
        <time>2015-03-01T10:35:19Z</time>
      </trkpt>
      <trkpt lat="49.83657" lon="5.44721">
        <ele>441</ele>
        <time>2015-03-01T10:35:25Z</time>
      </trkpt>
      <trkpt lat="49.83663" lon="5.44715">
        <ele>441</ele>
        <time>2015-03-01T10:35:30Z</time>
      </trkpt>
      <trkpt lat="49.8367" lon="5.44711">
        <ele>441</ele>
        <time>2015-03-01T10:35:36Z</time>
      </trkpt>
      <trkpt lat="49.83675" lon="5.44708">
        <ele>441</ele>
        <time>2015-03-01T10:35:41Z</time>
      </trkpt>
      <trkpt lat="49.83682" lon="5.44705">
        <ele>442</ele>
        <time>2015-03-01T10:35:47Z</time>
      </trkpt>
      <trkpt lat="49.83686" lon="5.447">
        <ele>442</ele>
        <time>2015-03-01T10:35:52Z</time>
      </trkpt>
      <trkpt lat="49.83688" lon="5.44695">
        <ele>443</ele>
        <time>2015-03-01T10:35:57Z</time>
      </trkpt>
      <trkpt lat="49.83688" lon="5.44688">
        <ele>443</ele>
        <time>2015-03-01T10:36:03Z</time>
      </trkpt>
      <trkpt lat="49.83686" lon="5.44681">
        <ele>442</ele>
        <time>2015-03-01T10:36:09Z</time>
      </trkpt>
      <trkpt lat="49.83683" lon="5.44674">
        <ele>442</ele>
        <time>2015-03-01T10:36:15Z</time>
      </trkpt>
      <trkpt lat="49.8368" lon="5.44666">
        <ele>441</ele>
        <time>2015-03-01T10:36:20Z</time>
      </trkpt>
      <trkpt lat="49.83676" lon="5.44659">
        <ele>440</ele>
        <time>2015-03-01T10:36:26Z</time>
      </trkpt>
      <trkpt lat="49.83672" lon="5.44654">
        <ele>440</ele>
        <time>2015-03-01T10:36:32Z</time>
      </trkpt>
      <trkpt lat="49.83668" lon="5.44648">
        <ele>439</ele>
        <time>2015-03-01T10:36:37Z</time>
      </trkpt>
      <trkpt lat="49.83664" lon="5.44644">
        <ele>439</ele>
        <time>2015-03-01T10:36:43Z</time>
      </trkpt>
      <trkpt lat="49.83662" lon="5.44641">
        <ele>438</ele>
        <time>2015-03-01T10:36:48Z</time>
      </trkpt>
      <trkpt lat="49.83659" lon="5.44639">
        <ele>438</ele>
        <time>2015-03-01T10:36:53Z</time>
      </trkpt>
      <trkpt lat="49.83655" lon="5.44636">
        <ele>438</ele>
        <time>2015-03-01T10:36:58Z</time>
      </trkpt>
      <trkpt lat="49.83652" lon="5.44632">
        <ele>437</ele>
        <time>2015-03-01T10:37:03Z</time>
      </trkpt>
      <trkpt lat="49.83647" lon="5.44629">
        <ele>437</ele>
        <time>2015-03-01T10:37:08Z</time>
      </trkpt>
      <trkpt lat="49.83641" lon="5.44628">
        <ele>435</ele>
        <time>2015-03-01T10:37:14Z</time>
      </trkpt>
      <trkpt lat="49.83637" lon="5.44625">
        <ele>435</ele>
        <time>2015-03-01T10:37:19Z</time>
      </trkpt>
      <trkpt lat="49.83631" lon="5.44623">
        <ele>434</ele>
        <time>2015-03-01T10:37:25Z</time>
      </trkpt>
      <trkpt lat="49.83626" lon="5.4462">
        <ele>433</ele>
        <time>2015-03-01T10:37:31Z</time>
      </trkpt>
      <trkpt lat="49.8362" lon="5.4462">
        <ele>432</ele>
        <time>2015-03-01T10:37:36Z</time>
      </trkpt>
      <trkpt lat="49.83614" lon="5.4462">
        <ele>430</ele>
        <time>2015-03-01T10:37:42Z</time>
      </trkpt>
      <trkpt lat="49.8361" lon="5.44619">
        <ele>429</ele>
        <time>2015-03-01T10:37:48Z</time>
      </trkpt>
      <trkpt lat="49.83605" lon="5.44618">
        <ele>427</ele>
        <time>2015-03-01T10:37:53Z</time>
      </trkpt>
      <trkpt lat="49.836" lon="5.44618">
        <ele>426</ele>
        <time>2015-03-01T10:37:58Z</time>
      </trkpt>
      <trkpt lat="49.83594" lon="5.44619">
        <ele>425</ele>
        <time>2015-03-01T10:38:04Z</time>
      </trkpt>
      <trkpt lat="49.83587" lon="5.44622">
        <ele>424</ele>
        <time>2015-03-01T10:38:09Z</time>
      </trkpt>
      <trkpt lat="49.83582" lon="5.44624">
        <ele>423</ele>
        <time>2015-03-01T10:38:14Z</time>
      </trkpt>
      <trkpt lat="49.83575" lon="5.44626">
        <ele>423</ele>
        <time>2015-03-01T10:38:19Z</time>
      </trkpt>
      <trkpt lat="49.83565" lon="5.44629">
        <ele>422</ele>
        <time>2015-03-01T10:38:25Z</time>
      </trkpt>
      <trkpt lat="49.83558" lon="5.44632">
        <ele>422</ele>
        <time>2015-03-01T10:38:31Z</time>
      </trkpt>
      <trkpt lat="49.83553" lon="5.44635">
        <ele>422</ele>
        <time>2015-03-01T10:38:37Z</time>
      </trkpt>
      <trkpt lat="49.83547" lon="5.44639">
        <ele>422</ele>
        <time>2015-03-01T10:38:43Z</time>
      </trkpt>
      <trkpt lat="49.83541" lon="5.44643">
        <ele>422</ele>
        <time>2015-03-01T10:38:49Z</time>
      </trkpt>
      <trkpt lat="49.83533" lon="5.44648">
        <ele>422</ele>
        <time>2015-03-01T10:38:54Z</time>
      </trkpt>
      <trkpt lat="49.83527" lon="5.44651">
        <ele>422</ele>
        <time>2015-03-01T10:38:59Z</time>
      </trkpt>
      <trkpt lat="49.83521" lon="5.44653">
        <ele>422</ele>
        <time>2015-03-01T10:39:05Z</time>
      </trkpt>
      <trkpt lat="49.83517" lon="5.44656">
        <ele>422</ele>
        <time>2015-03-01T10:39:10Z</time>
      </trkpt>
      <trkpt lat="49.83512" lon="5.44656">
        <ele>422</ele>
        <time>2015-03-01T10:39:16Z</time>
      </trkpt>
      <trkpt lat="49.83507" lon="5.44656">
        <ele>423</ele>
        <time>2015-03-01T10:39:22Z</time>
      </trkpt>
      <trkpt lat="49.83503" lon="5.44659">
        <ele>423</ele>
        <time>2015-03-01T10:39:27Z</time>
      </trkpt>
      <trkpt lat="49.83501" lon="5.44658">
        <ele>423</ele>
        <time>2015-03-01T10:39:34Z</time>
      </trkpt>
      <trkpt lat="49.835" lon="5.44653">
        <ele>423</ele>
        <time>2015-03-01T10:39:39Z</time>
      </trkpt>
      <trkpt lat="49.83499" lon="5.4465">
        <ele>422</ele>
        <time>2015-03-01T10:39:45Z</time>
      </trkpt>
      <trkpt lat="49.83499" lon="5.44648">
        <ele>422</ele>
        <time>2015-03-01T10:39:51Z</time>
      </trkpt>
      <trkpt lat="49.835" lon="5.44644">
        <ele>422</ele>
        <time>2015-03-01T10:39:56Z</time>
      </trkpt>
      <trkpt lat="49.835" lon="5.44639">
        <ele>422</ele>
        <time>2015-03-01T10:40:01Z</time>
      </trkpt>
      <trkpt lat="49.83499" lon="5.44633">
        <ele>422</ele>
        <time>2015-03-01T10:40:06Z</time>
      </trkpt>
      <trkpt lat="49.83498" lon="5.44628">
        <ele>422</ele>
        <time>2015-03-01T10:40:11Z</time>
      </trkpt>
      <trkpt lat="49.83497" lon="5.44621">
        <ele>423</ele>
        <time>2015-03-01T10:40:17Z</time>
      </trkpt>
      <trkpt lat="49.83497" lon="5.44613">
        <ele>423</ele>
        <time>2015-03-01T10:40:23Z</time>
      </trkpt>
      <trkpt lat="49.83496" lon="5.44603">
        <ele>423</ele>
        <time>2015-03-01T10:40:29Z</time>
      </trkpt>
      <trkpt lat="49.83495" lon="5.44595">
        <ele>425</ele>
        <time>2015-03-01T10:40:34Z</time>
      </trkpt>
      <trkpt lat="49.83493" lon="5.44588">
        <ele>425</ele>
        <time>2015-03-01T10:40:39Z</time>
      </trkpt>
      <trkpt lat="49.83491" lon="5.44581">
        <ele>425</ele>
        <time>2015-03-01T10:40:44Z</time>
      </trkpt>
      <trkpt lat="49.83489" lon="5.44575">
        <ele>426</ele>
        <time>2015-03-01T10:40:50Z</time>
      </trkpt>
      <trkpt lat="49.83485" lon="5.44566">
        <ele>426</ele>
        <time>2015-03-01T10:40:55Z</time>
      </trkpt>
      <trkpt lat="49.83482" lon="5.44559">
        <ele>427</ele>
        <time>2015-03-01T10:41:00Z</time>
      </trkpt>
      <trkpt lat="49.8348" lon="5.44552">
        <ele>427</ele>
        <time>2015-03-01T10:41:06Z</time>
      </trkpt>
      <trkpt lat="49.83477" lon="5.44543">
        <ele>428</ele>
        <time>2015-03-01T10:41:11Z</time>
      </trkpt>
      <trkpt lat="49.83476" lon="5.44532">
        <ele>427</ele>
        <time>2015-03-01T10:41:17Z</time>
      </trkpt>
      <trkpt lat="49.83474" lon="5.44523">
        <ele>428</ele>
        <time>2015-03-01T10:41:22Z</time>
      </trkpt>
      <trkpt lat="49.83473" lon="5.44515">
        <ele>427</ele>
        <time>2015-03-01T10:41:27Z</time>
      </trkpt>
      <trkpt lat="49.83471" lon="5.44507">
        <ele>427</ele>
        <time>2015-03-01T10:41:32Z</time>
      </trkpt>
      <trkpt lat="49.8347" lon="5.44496">
        <ele>427</ele>
        <time>2015-03-01T10:41:38Z</time>
      </trkpt>
      <trkpt lat="49.83467" lon="5.4449">
        <ele>426</ele>
        <time>2015-03-01T10:41:43Z</time>
      </trkpt>
      <trkpt lat="49.83465" lon="5.44481">
        <ele>425</ele>
        <time>2015-03-01T10:41:49Z</time>
      </trkpt>
      <trkpt lat="49.83461" lon="5.44475">
        <ele>424</ele>
        <time>2015-03-01T10:41:55Z</time>
      </trkpt>
      <trkpt lat="49.83459" lon="5.44468">
        <ele>423</ele>
        <time>2015-03-01T10:42:00Z</time>
      </trkpt>
      <trkpt lat="49.83455" lon="5.44459">
        <ele>423</ele>
        <time>2015-03-01T10:42:06Z</time>
      </trkpt>
      <trkpt lat="49.83454" lon="5.44451">
        <ele>422</ele>
        <time>2015-03-01T10:42:11Z</time>
      </trkpt>
      <trkpt lat="49.83452" lon="5.44442">
        <ele>422</ele>
        <time>2015-03-01T10:42:16Z</time>
      </trkpt>
      <trkpt lat="49.8345" lon="5.44431">
        <ele>421</ele>
        <time>2015-03-01T10:42:22Z</time>
      </trkpt>
      <trkpt lat="49.83447" lon="5.44424">
        <ele>421</ele>
        <time>2015-03-01T10:42:27Z</time>
      </trkpt>
      <trkpt lat="49.83445" lon="5.44415">
        <ele>421</ele>
        <time>2015-03-01T10:42:32Z</time>
      </trkpt>
      <trkpt lat="49.83444" lon="5.44404">
        <ele>421</ele>
        <time>2015-03-01T10:42:38Z</time>
      </trkpt>
      <trkpt lat="49.83444" lon="5.44394">
        <ele>421</ele>
        <time>2015-03-01T10:42:43Z</time>
      </trkpt>
      <trkpt lat="49.83443" lon="5.44386">
        <ele>420</ele>
        <time>2015-03-01T10:42:49Z</time>
      </trkpt>
      <trkpt lat="49.83442" lon="5.44378">
        <ele>420</ele>
        <time>2015-03-01T10:42:54Z</time>
      </trkpt>
      <trkpt lat="49.83442" lon="5.44373">
        <ele>420</ele>
        <time>2015-03-01T10:42:59Z</time>
      </trkpt>
      <trkpt lat="49.83442" lon="5.44371">
        <ele>420</ele>
        <time>2015-03-01T10:43:05Z</time>
      </trkpt>
      <trkpt lat="49.83442" lon="5.44368">
        <ele>419</ele>
        <time>2015-03-01T10:43:11Z</time>
      </trkpt>
      <trkpt lat="49.83445" lon="5.44364">
        <ele>418</ele>
        <time>2015-03-01T10:43:17Z</time>
      </trkpt>
      <trkpt lat="49.83447" lon="5.44361">
        <ele>417</ele>
        <time>2015-03-01T10:43:22Z</time>
      </trkpt>
      <trkpt lat="49.83449" lon="5.44357">
        <ele>416</ele>
        <time>2015-03-01T10:43:27Z</time>
      </trkpt>
      <trkpt lat="49.83453" lon="5.44352">
        <ele>416</ele>
        <time>2015-03-01T10:43:33Z</time>
      </trkpt>
      <trkpt lat="49.83455" lon="5.44349">
        <ele>415</ele>
        <time>2015-03-01T10:43:39Z</time>
      </trkpt>
      <trkpt lat="49.83457" lon="5.44345">
        <ele>414</ele>
        <time>2015-03-01T10:43:45Z</time>
      </trkpt>
      <trkpt lat="49.83462" lon="5.4434">
        <ele>414</ele>
        <time>2015-03-01T10:43:51Z</time>
      </trkpt>
      <trkpt lat="49.83464" lon="5.44339">
        <ele>415</ele>
        <time>2015-03-01T10:43:56Z</time>
      </trkpt>
      <trkpt lat="49.83464" lon="5.44335">
        <ele>414</ele>
        <time>2015-03-01T10:44:02Z</time>
      </trkpt>
      <trkpt lat="49.83463" lon="5.44332">
        <ele>414</ele>
        <time>2015-03-01T10:44:07Z</time>
      </trkpt>
      <trkpt lat="49.83461" lon="5.44331">
        <ele>414</ele>
        <time>2015-03-01T10:44:12Z</time>
      </trkpt>
      <trkpt lat="49.8346" lon="5.44328">
        <ele>414</ele>
        <time>2015-03-01T10:44:18Z</time>
      </trkpt>
      <trkpt lat="49.83459" lon="5.44326">
        <ele>414</ele>
        <time>2015-03-01T10:44:23Z</time>
      </trkpt>
      <trkpt lat="49.83459" lon="5.44324">
        <ele>414</ele>
        <time>2015-03-01T10:44:29Z</time>
      </trkpt>
      <trkpt lat="49.83461" lon="5.44322">
        <ele>414</ele>
        <time>2015-03-01T10:44:34Z</time>
      </trkpt>
      <trkpt lat="49.83463" lon="5.4432">
        <ele>415</ele>
        <time>2015-03-01T10:44:41Z</time>
      </trkpt>
      <trkpt lat="49.83464" lon="5.44319">
        <ele>415</ele>
        <time>2015-03-01T10:44:46Z</time>
      </trkpt>
      <trkpt lat="49.83463" lon="5.44316">
        <ele>414</ele>
        <time>2015-03-01T10:44:52Z</time>
      </trkpt>
      <trkpt lat="49.83462" lon="5.44315">
        <ele>414</ele>
        <time>2015-03-01T10:44:57Z</time>
      </trkpt>
      <trkpt lat="49.83461" lon="5.44317">
        <ele>414</ele>
        <time>2015-03-01T10:45:02Z</time>
      </trkpt>
      <trkpt lat="49.8346" lon="5.4432">
        <ele>414</ele>
        <time>2015-03-01T10:45:08Z</time>
      </trkpt>
      <trkpt lat="49.83459" lon="5.44322">
        <ele>414</ele>
        <time>2015-03-01T10:45:13Z</time>
      </trkpt>
      <trkpt lat="49.83458" lon="5.44323">
        <ele>414</ele>
        <time>2015-03-01T10:45:19Z</time>
      </trkpt>
      <trkpt lat="49.83456" lon="5.44322">
        <ele>414</ele>
        <time>2015-03-01T10:45:24Z</time>
      </trkpt>
      <trkpt lat="49.83455" lon="5.44325">
        <ele>414</ele>
        <time>2015-03-01T10:45:30Z</time>
      </trkpt>
      <trkpt lat="49.83455" lon="5.44331">
        <ele>414</ele>
        <time>2015-03-01T10:45:35Z</time>
      </trkpt>
      <trkpt lat="49.83454" lon="5.44335">
        <ele>415</ele>
        <time>2015-03-01T10:45:40Z</time>
      </trkpt>
      <trkpt lat="49.83455" lon="5.44339">
        <ele>415</ele>
        <time>2015-03-01T10:45:46Z</time>
      </trkpt>
      <trkpt lat="49.83456" lon="5.44341">
        <ele>415</ele>
        <time>2015-03-01T10:45:51Z</time>
      </trkpt>
      <trkpt lat="49.83457" lon="5.44343">
        <ele>415</ele>
        <time>2015-03-01T10:45:56Z</time>
      </trkpt>
      <trkpt lat="49.83456" lon="5.44342">
        <ele>415</ele>
        <time>2015-03-01T10:46:02Z</time>
      </trkpt>
      <trkpt lat="49.83456" lon="5.4434">
        <ele>415</ele>
        <time>2015-03-01T10:46:08Z</time>
      </trkpt>
      <trkpt lat="49.83455" lon="5.44339">
        <ele>415</ele>
        <time>2015-03-01T10:46:13Z</time>
      </trkpt>
      <trkpt lat="49.83453" lon="5.44337">
        <ele>416</ele>
        <time>2015-03-01T10:46:19Z</time>
      </trkpt>
      <trkpt lat="49.8345" lon="5.44335">
        <ele>415</ele>
        <time>2015-03-01T10:46:25Z</time>
      </trkpt>
      <trkpt lat="49.8345" lon="5.44332">
        <ele>415</ele>
        <time>2015-03-01T10:46:30Z</time>
      </trkpt>
      <trkpt lat="49.83448" lon="5.44331">
        <ele>415</ele>
        <time>2015-03-01T10:46:36Z</time>
      </trkpt>
      <trkpt lat="49.83448" lon="5.44331">
        <ele>416</ele>
        <time>2015-03-01T10:46:41Z</time>
      </trkpt>
      <trkpt lat="49.83447" lon="5.4433">
        <ele>416</ele>
        <time>2015-03-01T10:46:48Z</time>
      </trkpt>
      <trkpt lat="49.83445" lon="5.4433">
        <ele>416</ele>
        <time>2015-03-01T10:46:53Z</time>
      </trkpt>
      <trkpt lat="49.83444" lon="5.44328">
        <ele>416</ele>
        <time>2015-03-01T10:47:00Z</time>
      </trkpt>
      <trkpt lat="49.83442" lon="5.44327">
        <ele>417</ele>
        <time>2015-03-01T10:47:05Z</time>
      </trkpt>
      <trkpt lat="49.83442" lon="5.44326">
        <ele>418</ele>
        <time>2015-03-01T10:47:10Z</time>
      </trkpt>
      <trkpt lat="49.83442" lon="5.44326">
        <ele>418</ele>
        <time>2015-03-01T10:47:16Z</time>
      </trkpt>
      <trkpt lat="49.83441" lon="5.44326">
        <ele>419</ele>
        <time>2015-03-01T10:47:21Z</time>
      </trkpt>
      <trkpt lat="49.83439" lon="5.44325">
        <ele>420</ele>
        <time>2015-03-01T10:47:27Z</time>
      </trkpt>
      <trkpt lat="49.83437" lon="5.44325">
        <ele>420</ele>
        <time>2015-03-01T10:47:33Z</time>
      </trkpt>
      <trkpt lat="49.83437" lon="5.44322">
        <ele>421</ele>
        <time>2015-03-01T10:47:38Z</time>
      </trkpt>
      <trkpt lat="49.83437" lon="5.44318">
        <ele>422</ele>
        <time>2015-03-01T10:47:44Z</time>
      </trkpt>
      <trkpt lat="49.83438" lon="5.44313">
        <ele>421</ele>
        <time>2015-03-01T10:47:50Z</time>
      </trkpt>
      <trkpt lat="49.83438" lon="5.44306">
        <ele>421</ele>
        <time>2015-03-01T10:47:56Z</time>
      </trkpt>
      <trkpt lat="49.8344" lon="5.443">
        <ele>421</ele>
        <time>2015-03-01T10:48:01Z</time>
      </trkpt>
      <trkpt lat="49.8344" lon="5.44293">
        <ele>420</ele>
        <time>2015-03-01T10:48:06Z</time>
      </trkpt>
      <trkpt lat="49.83442" lon="5.44283">
        <ele>420</ele>
        <time>2015-03-01T10:48:13Z</time>
      </trkpt>
      <trkpt lat="49.83445" lon="5.44273">
        <ele>420</ele>
        <time>2015-03-01T10:48:18Z</time>
      </trkpt>
      <trkpt lat="49.83447" lon="5.44265">
        <ele>420</ele>
        <time>2015-03-01T10:48:24Z</time>
      </trkpt>
      <trkpt lat="49.8345" lon="5.44254">
        <ele>420</ele>
        <time>2015-03-01T10:48:29Z</time>
      </trkpt>
      <trkpt lat="49.83451" lon="5.44244">
        <ele>420</ele>
        <time>2015-03-01T10:48:35Z</time>
      </trkpt>
      <trkpt lat="49.83455" lon="5.44233">
        <ele>419</ele>
        <time>2015-03-01T10:48:40Z</time>
      </trkpt>
      <trkpt lat="49.83456" lon="5.44225">
        <ele>419</ele>
        <time>2015-03-01T10:48:45Z</time>
      </trkpt>
      <trkpt lat="49.83459" lon="5.44217">
        <ele>420</ele>
        <time>2015-03-01T10:48:50Z</time>
      </trkpt>
      <trkpt lat="49.83461" lon="5.4421">
        <ele>420</ele>
        <time>2015-03-01T10:48:55Z</time>
      </trkpt>
      <trkpt lat="49.83464" lon="5.44203">
        <ele>420</ele>
        <time>2015-03-01T10:49:00Z</time>
      </trkpt>
      <trkpt lat="49.83468" lon="5.44195">
        <ele>420</ele>
        <time>2015-03-01T10:49:06Z</time>
      </trkpt>
      <trkpt lat="49.83471" lon="5.44188">
        <ele>420</ele>
        <time>2015-03-01T10:49:11Z</time>
      </trkpt>
      <trkpt lat="49.83474" lon="5.44181">
        <ele>420</ele>
        <time>2015-03-01T10:49:17Z</time>
      </trkpt>
      <trkpt lat="49.83478" lon="5.44171">
        <ele>420</ele>
        <time>2015-03-01T10:49:22Z</time>
      </trkpt>
      <trkpt lat="49.83482" lon="5.44163">
        <ele>420</ele>
        <time>2015-03-01T10:49:28Z</time>
      </trkpt>
      <trkpt lat="49.83482" lon="5.4416">
        <ele>420</ele>
        <time>2015-03-01T10:49:34Z</time>
      </trkpt>
      <trkpt lat="49.83482" lon="5.44157">
        <ele>420</ele>
        <time>2015-03-01T10:49:39Z</time>
      </trkpt>
      <trkpt lat="49.83482" lon="5.44156">
        <ele>420</ele>
        <time>2015-03-01T10:49:44Z</time>
      </trkpt>
      <trkpt lat="49.83481" lon="5.44155">
        <ele>420</ele>
        <time>2015-03-01T10:49:51Z</time>
      </trkpt>
      <trkpt lat="49.83481" lon="5.44156">
        <ele>421</ele>
        <time>2015-03-01T10:49:56Z</time>
      </trkpt>
      <trkpt lat="49.8348" lon="5.44155">
        <ele>421</ele>
        <time>2015-03-01T10:50:03Z</time>
      </trkpt>
      <trkpt lat="49.83482" lon="5.44156">
        <ele>420</ele>
        <time>2015-03-01T10:50:09Z</time>
      </trkpt>
      <trkpt lat="49.83482" lon="5.44156">
        <ele>420</ele>
        <time>2015-03-01T10:50:15Z</time>
      </trkpt>
      <trkpt lat="49.83483" lon="5.44153">
        <ele>420</ele>
        <time>2015-03-01T10:50:20Z</time>
      </trkpt>
      <trkpt lat="49.83484" lon="5.44152">
        <ele>420</ele>
        <time>2015-03-01T10:50:25Z</time>
      </trkpt>
      <trkpt lat="49.83486" lon="5.44152">
        <ele>420</ele>
        <time>2015-03-01T10:50:30Z</time>
      </trkpt>
      <trkpt lat="49.83488" lon="5.44151">
        <ele>420</ele>
        <time>2015-03-01T10:50:35Z</time>
      </trkpt>
      <trkpt lat="49.83491" lon="5.44151">
        <ele>420</ele>
        <time>2015-03-01T10:50:40Z</time>
      </trkpt>
      <trkpt lat="49.83495" lon="5.44151">
        <ele>419</ele>
        <time>2015-03-01T10:50:45Z</time>
      </trkpt>
      <trkpt lat="49.83498" lon="5.44149">
        <ele>419</ele>
        <time>2015-03-01T10:50:50Z</time>
      </trkpt>
      <trkpt lat="49.83501" lon="5.44148">
        <ele>419</ele>
        <time>2015-03-01T10:50:56Z</time>
      </trkpt>
      <trkpt lat="49.83506" lon="5.44147">
        <ele>418</ele>
        <time>2015-03-01T10:51:01Z</time>
      </trkpt>
      <trkpt lat="49.83511" lon="5.44144">
        <ele>418</ele>
        <time>2015-03-01T10:51:07Z</time>
      </trkpt>
      <trkpt lat="49.83515" lon="5.44137">
        <ele>417</ele>
        <time>2015-03-01T10:51:13Z</time>
      </trkpt>
      <trkpt lat="49.8352" lon="5.44131">
        <ele>417</ele>
        <time>2015-03-01T10:51:18Z</time>
      </trkpt>
      <trkpt lat="49.83525" lon="5.44127">
        <ele>416</ele>
        <time>2015-03-01T10:51:23Z</time>
      </trkpt>
      <trkpt lat="49.83531" lon="5.44121">
        <ele>416</ele>
        <time>2015-03-01T10:51:29Z</time>
      </trkpt>
      <trkpt lat="49.83536" lon="5.44116">
        <ele>415</ele>
        <time>2015-03-01T10:51:35Z</time>
      </trkpt>
      <trkpt lat="49.83541" lon="5.44108">
        <ele>416</ele>
        <time>2015-03-01T10:51:40Z</time>
      </trkpt>
      <trkpt lat="49.83546" lon="5.44101">
        <ele>415</ele>
        <time>2015-03-01T10:51:46Z</time>
      </trkpt>
      <trkpt lat="49.83549" lon="5.44094">
        <ele>415</ele>
        <time>2015-03-01T10:51:51Z</time>
      </trkpt>
      <trkpt lat="49.83552" lon="5.44086">
        <ele>415</ele>
        <time>2015-03-01T10:51:56Z</time>
      </trkpt>
      <trkpt lat="49.83555" lon="5.44078">
        <ele>415</ele>
        <time>2015-03-01T10:52:01Z</time>
      </trkpt>
      <trkpt lat="49.83558" lon="5.44076">
        <ele>415</ele>
        <time>2015-03-01T10:52:07Z</time>
      </trkpt>
      <trkpt lat="49.83559" lon="5.44074">
        <ele>415</ele>
        <time>2015-03-01T10:52:12Z</time>
      </trkpt>
      <trkpt lat="49.83559" lon="5.44072">
        <ele>415</ele>
        <time>2015-03-01T10:52:18Z</time>
      </trkpt>
      <trkpt lat="49.83561" lon="5.4407">
        <ele>415</ele>
        <time>2015-03-01T10:52:23Z</time>
      </trkpt>
      <trkpt lat="49.8356" lon="5.44067">
        <ele>415</ele>
        <time>2015-03-01T10:52:29Z</time>
      </trkpt>
      <trkpt lat="49.83559" lon="5.44065">
        <ele>415</ele>
        <time>2015-03-01T10:52:35Z</time>
      </trkpt>
      <trkpt lat="49.83559" lon="5.44064">
        <ele>415</ele>
        <time>2015-03-01T10:52:40Z</time>
      </trkpt>
      <trkpt lat="49.83559" lon="5.44061">
        <ele>415</ele>
        <time>2015-03-01T10:52:46Z</time>
      </trkpt>
      <trkpt lat="49.83559" lon="5.44061">
        <ele>415</ele>
        <time>2015-03-01T10:52:52Z</time>
      </trkpt>
      <trkpt lat="49.83561" lon="5.44062">
        <ele>415</ele>
        <time>2015-03-01T10:52:57Z</time>
      </trkpt>
      <trkpt lat="49.8356" lon="5.4406">
        <ele>414</ele>
        <time>2015-03-01T10:53:03Z</time>
      </trkpt>
      <trkpt lat="49.83562" lon="5.44059">
        <ele>413</ele>
        <time>2015-03-01T10:53:09Z</time>
      </trkpt>
      <trkpt lat="49.83567" lon="5.44059">
        <ele>414</ele>
        <time>2015-03-01T10:53:14Z</time>
      </trkpt>
      <trkpt lat="49.83569" lon="5.44056">
        <ele>414</ele>
        <time>2015-03-01T10:53:19Z</time>
      </trkpt>
      <trkpt lat="49.83572" lon="5.44051">
        <ele>414</ele>
        <time>2015-03-01T10:53:24Z</time>
      </trkpt>
      <trkpt lat="49.83576" lon="5.44043">
        <ele>414</ele>
        <time>2015-03-01T10:53:30Z</time>
      </trkpt>
      <trkpt lat="49.83578" lon="5.44037">
        <ele>414</ele>
        <time>2015-03-01T10:53:35Z</time>
      </trkpt>
      <trkpt lat="49.83582" lon="5.44033">
        <ele>414</ele>
        <time>2015-03-01T10:53:41Z</time>
      </trkpt>
      <trkpt lat="49.83584" lon="5.44025">
        <ele>414</ele>
        <time>2015-03-01T10:53:46Z</time>
      </trkpt>
      <trkpt lat="49.83587" lon="5.44019">
        <ele>414</ele>
        <time>2015-03-01T10:53:51Z</time>
      </trkpt>
      <trkpt lat="49.83591" lon="5.44011">
        <ele>413</ele>
        <time>2015-03-01T10:53:57Z</time>
      </trkpt>
      <trkpt lat="49.83593" lon="5.44003">
        <ele>413</ele>
        <time>2015-03-01T10:54:03Z</time>
      </trkpt>
      <trkpt lat="49.83598" lon="5.43994">
        <ele>413</ele>
        <time>2015-03-01T10:54:09Z</time>
      </trkpt>
      <trkpt lat="49.83603" lon="5.43985">
        <ele>412</ele>
        <time>2015-03-01T10:54:15Z</time>
      </trkpt>
      <trkpt lat="49.83607" lon="5.43978">
        <ele>412</ele>
        <time>2015-03-01T10:54:21Z</time>
      </trkpt>
      <trkpt lat="49.83612" lon="5.4397">
        <ele>412</ele>
        <time>2015-03-01T10:54:27Z</time>
      </trkpt>
      <trkpt lat="49.83616" lon="5.43964">
        <ele>412</ele>
        <time>2015-03-01T10:54:32Z</time>
      </trkpt>
      <trkpt lat="49.8362" lon="5.43957">
        <ele>412</ele>
        <time>2015-03-01T10:54:38Z</time>
      </trkpt>
      <trkpt lat="49.83625" lon="5.43951">
        <ele>412</ele>
        <time>2015-03-01T10:54:44Z</time>
      </trkpt>
      <trkpt lat="49.83629" lon="5.43945">
        <ele>412</ele>
        <time>2015-03-01T10:54:49Z</time>
      </trkpt>
      <trkpt lat="49.83633" lon="5.43939">
        <ele>411</ele>
        <time>2015-03-01T10:54:55Z</time>
      </trkpt>
      <trkpt lat="49.83636" lon="5.43934">
        <ele>411</ele>
        <time>2015-03-01T10:55:01Z</time>
      </trkpt>
      <trkpt lat="49.83642" lon="5.43928">
        <ele>411</ele>
        <time>2015-03-01T10:55:06Z</time>
      </trkpt>
      <trkpt lat="49.83648" lon="5.43922">
        <ele>411</ele>
        <time>2015-03-01T10:55:12Z</time>
      </trkpt>
      <trkpt lat="49.83653" lon="5.43916">
        <ele>409</ele>
        <time>2015-03-01T10:55:18Z</time>
      </trkpt>
      <trkpt lat="49.83659" lon="5.43909">
        <ele>408</ele>
        <time>2015-03-01T10:55:24Z</time>
      </trkpt>
      <trkpt lat="49.83665" lon="5.43902">
        <ele>407</ele>
        <time>2015-03-01T10:55:30Z</time>
      </trkpt>
      <trkpt lat="49.8367" lon="5.43897">
        <ele>407</ele>
        <time>2015-03-01T10:55:35Z</time>
      </trkpt>
      <trkpt lat="49.83676" lon="5.43892">
        <ele>407</ele>
        <time>2015-03-01T10:55:40Z</time>
      </trkpt>
      <trkpt lat="49.83682" lon="5.43885">
        <ele>405</ele>
        <time>2015-03-01T10:55:46Z</time>
      </trkpt>
      <trkpt lat="49.83689" lon="5.43878">
        <ele>405</ele>
        <time>2015-03-01T10:55:52Z</time>
      </trkpt>
      <trkpt lat="49.83696" lon="5.43872">
        <ele>404</ele>
        <time>2015-03-01T10:55:58Z</time>
      </trkpt>
      <trkpt lat="49.83701" lon="5.43865">
        <ele>404</ele>
        <time>2015-03-01T10:56:03Z</time>
      </trkpt>
      <trkpt lat="49.83706" lon="5.43857">
        <ele>404</ele>
        <time>2015-03-01T10:56:09Z</time>
      </trkpt>
      <trkpt lat="49.8371" lon="5.4385">
        <ele>403</ele>
        <time>2015-03-01T10:56:14Z</time>
      </trkpt>
      <trkpt lat="49.83716" lon="5.43842">
        <ele>403</ele>
        <time>2015-03-01T10:56:20Z</time>
      </trkpt>
      <trkpt lat="49.83721" lon="5.43834">
        <ele>402</ele>
        <time>2015-03-01T10:56:25Z</time>
      </trkpt>
      <trkpt lat="49.83726" lon="5.43826">
        <ele>402</ele>
        <time>2015-03-01T10:56:31Z</time>
      </trkpt>
      <trkpt lat="49.8373" lon="5.43817">
        <ele>402</ele>
        <time>2015-03-01T10:56:36Z</time>
      </trkpt>
      <trkpt lat="49.83734" lon="5.43809">
        <ele>402</ele>
        <time>2015-03-01T10:56:43Z</time>
      </trkpt>
      <trkpt lat="49.83738" lon="5.438">
        <ele>402</ele>
        <time>2015-03-01T10:56:48Z</time>
      </trkpt>
      <trkpt lat="49.83742" lon="5.43792">
        <ele>402</ele>
        <time>2015-03-01T10:56:53Z</time>
      </trkpt>
      <trkpt lat="49.83744" lon="5.43785">
        <ele>402</ele>
        <time>2015-03-01T10:56:58Z</time>
      </trkpt>
      <trkpt lat="49.83747" lon="5.43774">
        <ele>402</ele>
        <time>2015-03-01T10:57:04Z</time>
      </trkpt>
      <trkpt lat="49.83749" lon="5.43763">
        <ele>402</ele>
        <time>2015-03-01T10:57:10Z</time>
      </trkpt>
      <trkpt lat="49.83751" lon="5.43751">
        <ele>401</ele>
        <time>2015-03-01T10:57:16Z</time>
      </trkpt>
      <trkpt lat="49.83752" lon="5.43738">
        <ele>401</ele>
        <time>2015-03-01T10:57:22Z</time>
      </trkpt>
      <trkpt lat="49.83752" lon="5.43726">
        <ele>400</ele>
        <time>2015-03-01T10:57:28Z</time>
      </trkpt>
      <trkpt lat="49.83753" lon="5.43718">
        <ele>400</ele>
        <time>2015-03-01T10:57:33Z</time>
      </trkpt>
      <trkpt lat="49.83754" lon="5.43711">
        <ele>399</ele>
        <time>2015-03-01T10:57:38Z</time>
      </trkpt>
      <trkpt lat="49.83755" lon="5.43706">
        <ele>399</ele>
        <time>2015-03-01T10:57:44Z</time>
      </trkpt>
      <trkpt lat="49.83757" lon="5.437">
        <ele>399</ele>
        <time>2015-03-01T10:57:49Z</time>
      </trkpt>
      <trkpt lat="49.83759" lon="5.43695">
        <ele>400</ele>
        <time>2015-03-01T10:57:55Z</time>
      </trkpt>
      <trkpt lat="49.83761" lon="5.4369">
        <ele>399</ele>
        <time>2015-03-01T10:58:00Z</time>
      </trkpt>
      <trkpt lat="49.83763" lon="5.43687">
        <ele>400</ele>
        <time>2015-03-01T10:58:05Z</time>
      </trkpt>
      <trkpt lat="49.83763" lon="5.43684">
        <ele>400</ele>
        <time>2015-03-01T10:58:10Z</time>
      </trkpt>
      <trkpt lat="49.83764" lon="5.4368">
        <ele>400</ele>
        <time>2015-03-01T10:58:15Z</time>
      </trkpt>
      <trkpt lat="49.83765" lon="5.43677">
        <ele>400</ele>
        <time>2015-03-01T10:58:21Z</time>
      </trkpt>
      <trkpt lat="49.83763" lon="5.43677">
        <ele>399</ele>
        <time>2015-03-01T10:58:26Z</time>
      </trkpt>
      <trkpt lat="49.83765" lon="5.43679">
        <ele>399</ele>
        <time>2015-03-01T10:58:31Z</time>
      </trkpt>
      <trkpt lat="49.8377" lon="5.43681">
        <ele>399</ele>
        <time>2015-03-01T10:58:37Z</time>
      </trkpt>
      <trkpt lat="49.83773" lon="5.4368">
        <ele>399</ele>
        <time>2015-03-01T10:58:43Z</time>
      </trkpt>
      <trkpt lat="49.83772" lon="5.4368">
        <ele>400</ele>
        <time>2015-03-01T10:58:48Z</time>
      </trkpt>
      <trkpt lat="49.83768" lon="5.43681">
        <ele>400</ele>
        <time>2015-03-01T10:58:54Z</time>
      </trkpt>
      <trkpt lat="49.83767" lon="5.43683">
        <ele>399</ele>
        <time>2015-03-01T10:59:00Z</time>
      </trkpt>
      <trkpt lat="49.83762" lon="5.43686">
        <ele>399</ele>
        <time>2015-03-01T10:59:06Z</time>
      </trkpt>
      <trkpt lat="49.83758" lon="5.43686">
        <ele>399</ele>
        <time>2015-03-01T10:59:12Z</time>
      </trkpt>
      <trkpt lat="49.83754" lon="5.43684">
        <ele>399</ele>
        <time>2015-03-01T10:59:17Z</time>
      </trkpt>
      <trkpt lat="49.8375" lon="5.4368">
        <ele>400</ele>
        <time>2015-03-01T10:59:22Z</time>
      </trkpt>
      <trkpt lat="49.83746" lon="5.43677">
        <ele>399</ele>
        <time>2015-03-01T10:59:27Z</time>
      </trkpt>
      <trkpt lat="49.83741" lon="5.43674">
        <ele>399</ele>
        <time>2015-03-01T10:59:33Z</time>
      </trkpt>
      <trkpt lat="49.83735" lon="5.43671">
        <ele>398</ele>
        <time>2015-03-01T10:59:38Z</time>
      </trkpt>
      <trkpt lat="49.83728" lon="5.43666">
        <ele>399</ele>
        <time>2015-03-01T10:59:44Z</time>
      </trkpt>
      <trkpt lat="49.83721" lon="5.43662">
        <ele>399</ele>
        <time>2015-03-01T10:59:50Z</time>
      </trkpt>
      <trkpt lat="49.83716" lon="5.43657">
        <ele>399</ele>
        <time>2015-03-01T10:59:55Z</time>
      </trkpt>
      <trkpt lat="49.83714" lon="5.4365">
        <ele>399</ele>
        <time>2015-03-01T11:00:00Z</time>
      </trkpt>
      <trkpt lat="49.83713" lon="5.43639">
        <ele>399</ele>
        <time>2015-03-01T11:00:06Z</time>
      </trkpt>
      <trkpt lat="49.83712" lon="5.43627">
        <ele>400</ele>
        <time>2015-03-01T11:00:12Z</time>
      </trkpt>
      <trkpt lat="49.83711" lon="5.43617">
        <ele>400</ele>
        <time>2015-03-01T11:00:17Z</time>
      </trkpt>
      <trkpt lat="49.8371" lon="5.43609">
        <ele>399</ele>
        <time>2015-03-01T11:00:22Z</time>
      </trkpt>
      <trkpt lat="49.83708" lon="5.43603">
        <ele>399</ele>
        <time>2015-03-01T11:00:27Z</time>
      </trkpt>
      <trkpt lat="49.83707" lon="5.43594">
        <ele>399</ele>
        <time>2015-03-01T11:00:33Z</time>
      </trkpt>
      <trkpt lat="49.83709" lon="5.43586">
        <ele>399</ele>
        <time>2015-03-01T11:00:39Z</time>
      </trkpt>
      <trkpt lat="49.83711" lon="5.43579">
        <ele>399</ele>
        <time>2015-03-01T11:00:44Z</time>
      </trkpt>
      <trkpt lat="49.83716" lon="5.43572">
        <ele>399</ele>
        <time>2015-03-01T11:00:50Z</time>
      </trkpt>
      <trkpt lat="49.83721" lon="5.43566">
        <ele>399</ele>
        <time>2015-03-01T11:00:56Z</time>
      </trkpt>
      <trkpt lat="49.83723" lon="5.4356">
        <ele>399</ele>
        <time>2015-03-01T11:01:01Z</time>
      </trkpt>
      <trkpt lat="49.83725" lon="5.43557">
        <ele>400</ele>
        <time>2015-03-01T11:01:07Z</time>
      </trkpt>
      <trkpt lat="49.83725" lon="5.43556">
        <ele>399</ele>
        <time>2015-03-01T11:01:13Z</time>
      </trkpt>
      <trkpt lat="49.83726" lon="5.43555">
        <ele>399</ele>
        <time>2015-03-01T11:01:19Z</time>
      </trkpt>
      <trkpt lat="49.8373" lon="5.4355">
        <ele>398</ele>
        <time>2015-03-01T11:01:24Z</time>
      </trkpt>
      <trkpt lat="49.83733" lon="5.43543">
        <ele>399</ele>
        <time>2015-03-01T11:01:29Z</time>
      </trkpt>
      <trkpt lat="49.83736" lon="5.43536">
        <ele>400</ele>
        <time>2015-03-01T11:01:35Z</time>
      </trkpt>
      <trkpt lat="49.83737" lon="5.43531">
        <ele>401</ele>
        <time>2015-03-01T11:01:40Z</time>
      </trkpt>
      <trkpt lat="49.83736" lon="5.43525">
        <ele>401</ele>
        <time>2015-03-01T11:01:45Z</time>
      </trkpt>
      <trkpt lat="49.83735" lon="5.43517">
        <ele>402</ele>
        <time>2015-03-01T11:01:51Z</time>
      </trkpt>
      <trkpt lat="49.83735" lon="5.43509">
        <ele>404</ele>
        <time>2015-03-01T11:01:57Z</time>
      </trkpt>
      <trkpt lat="49.83735" lon="5.43503">
        <ele>405</ele>
        <time>2015-03-01T11:02:03Z</time>
      </trkpt>
      <trkpt lat="49.83735" lon="5.43495">
        <ele>406</ele>
        <time>2015-03-01T11:02:08Z</time>
      </trkpt>
      <trkpt lat="49.83737" lon="5.43488">
        <ele>407</ele>
        <time>2015-03-01T11:02:14Z</time>
      </trkpt>
      <trkpt lat="49.83739" lon="5.43483">
        <ele>408</ele>
        <time>2015-03-01T11:02:19Z</time>
      </trkpt>
      <trkpt lat="49.83741" lon="5.43482">
        <ele>409</ele>
        <time>2015-03-01T11:02:25Z</time>
      </trkpt>
      <trkpt lat="49.83743" lon="5.43481">
        <ele>410</ele>
        <time>2015-03-01T11:02:30Z</time>
      </trkpt>
      <trkpt lat="49.83744" lon="5.43479">
        <ele>411</ele>
        <time>2015-03-01T11:02:35Z</time>
      </trkpt>
      <trkpt lat="49.83748" lon="5.43478">
        <ele>412</ele>
        <time>2015-03-01T11:02:41Z</time>
      </trkpt>
      <trkpt lat="49.83752" lon="5.43476">
        <ele>414</ele>
        <time>2015-03-01T11:02:47Z</time>
      </trkpt>
      <trkpt lat="49.83756" lon="5.43472">
        <ele>414</ele>
        <time>2015-03-01T11:02:53Z</time>
      </trkpt>
      <trkpt lat="49.8376" lon="5.43469">
        <ele>415</ele>
        <time>2015-03-01T11:02:59Z</time>
      </trkpt>
      <trkpt lat="49.83763" lon="5.43468">
        <ele>416</ele>
        <time>2015-03-01T11:03:04Z</time>
      </trkpt>
      <trkpt lat="49.83765" lon="5.4347">
        <ele>417</ele>
        <time>2015-03-01T11:03:10Z</time>
      </trkpt>
      <trkpt lat="49.83766" lon="5.43473">
        <ele>418</ele>
        <time>2015-03-01T11:03:15Z</time>
      </trkpt>
      <trkpt lat="49.83768" lon="5.43477">
        <ele>419</ele>
        <time>2015-03-01T11:03:21Z</time>
      </trkpt>
      <trkpt lat="49.83772" lon="5.43474">
        <ele>419</ele>
        <time>2015-03-01T11:03:26Z</time>
      </trkpt>
      <trkpt lat="49.83776" lon="5.43469">
        <ele>420</ele>
        <time>2015-03-01T11:03:31Z</time>
      </trkpt>
      <trkpt lat="49.83777" lon="5.43466">
        <ele>421</ele>
        <time>2015-03-01T11:03:37Z</time>
      </trkpt>
      <trkpt lat="49.83776" lon="5.43462">
        <ele>421</ele>
        <time>2015-03-01T11:03:43Z</time>
      </trkpt>
      <trkpt lat="49.83776" lon="5.43459">
        <ele>420</ele>
        <time>2015-03-01T11:03:48Z</time>
      </trkpt>
      <trkpt lat="49.83776" lon="5.43456">
        <ele>421</ele>
        <time>2015-03-01T11:03:53Z</time>
      </trkpt>
      <trkpt lat="49.83776" lon="5.43454">
        <ele>421</ele>
        <time>2015-03-01T11:03:58Z</time>
      </trkpt>
      <trkpt lat="49.83778" lon="5.43451">
        <ele>421</ele>
        <time>2015-03-01T11:04:04Z</time>
      </trkpt>
      <trkpt lat="49.83778" lon="5.43449">
        <ele>422</ele>
        <time>2015-03-01T11:04:09Z</time>
      </trkpt>
      <trkpt lat="49.83778" lon="5.43446">
        <ele>422</ele>
        <time>2015-03-01T11:04:15Z</time>
      </trkpt>
      <trkpt lat="49.83777" lon="5.43444">
        <ele>422</ele>
        <time>2015-03-01T11:04:20Z</time>
      </trkpt>
      <trkpt lat="49.83776" lon="5.43441">
        <ele>422</ele>
        <time>2015-03-01T11:04:25Z</time>
      </trkpt>
      <trkpt lat="49.83778" lon="5.43442">
        <ele>422</ele>
        <time>2015-03-01T11:04:31Z</time>
      </trkpt>
      <trkpt lat="49.83779" lon="5.43442">
        <ele>422</ele>
        <time>2015-03-01T11:04:36Z</time>
      </trkpt>
      <trkpt lat="49.8378" lon="5.43441">
        <ele>422</ele>
        <time>2015-03-01T11:04:41Z</time>
      </trkpt>
      <trkpt lat="49.8378" lon="5.4344">
        <ele>423</ele>
        <time>2015-03-01T11:04:46Z</time>
      </trkpt>
      <trkpt lat="49.83783" lon="5.43443">
        <ele>424</ele>
        <time>2015-03-01T11:04:52Z</time>
      </trkpt>
      <trkpt lat="49.83786" lon="5.43444">
        <ele>426</ele>
        <time>2015-03-01T11:04:57Z</time>
      </trkpt>
      <trkpt lat="49.83791" lon="5.43449">
        <ele>428</ele>
        <time>2015-03-01T11:05:03Z</time>
      </trkpt>
      <trkpt lat="49.83793" lon="5.43454">
        <ele>429</ele>
        <time>2015-03-01T11:05:08Z</time>
      </trkpt>
      <trkpt lat="49.83797" lon="5.43461">
        <ele>430</ele>
        <time>2015-03-01T11:05:14Z</time>
      </trkpt>
      <trkpt lat="49.83802" lon="5.43467">
        <ele>431</ele>
        <time>2015-03-01T11:05:20Z</time>
      </trkpt>
      <trkpt lat="49.8381" lon="5.43469">
        <ele>431</ele>
        <time>2015-03-01T11:05:26Z</time>
      </trkpt>
      <trkpt lat="49.83816" lon="5.4347">
        <ele>431</ele>
        <time>2015-03-01T11:05:31Z</time>
      </trkpt>
      <trkpt lat="49.83822" lon="5.43471">
        <ele>431</ele>
        <time>2015-03-01T11:05:37Z</time>
      </trkpt>
      <trkpt lat="49.83829" lon="5.43474">
        <ele>431</ele>
        <time>2015-03-01T11:05:43Z</time>
      </trkpt>
      <trkpt lat="49.83835" lon="5.43476">
        <ele>430</ele>
        <time>2015-03-01T11:05:48Z</time>
      </trkpt>
      <trkpt lat="49.83839" lon="5.43476">
        <ele>431</ele>
        <time>2015-03-01T11:05:54Z</time>
      </trkpt>
      <trkpt lat="49.83845" lon="5.43476">
        <ele>432</ele>
        <time>2015-03-01T11:05:59Z</time>
      </trkpt>
      <trkpt lat="49.83853" lon="5.43474">
        <ele>432</ele>
        <time>2015-03-01T11:06:05Z</time>
      </trkpt>
      <trkpt lat="49.83861" lon="5.43473">
        <ele>431</ele>
        <time>2015-03-01T11:06:11Z</time>
      </trkpt>
      <trkpt lat="49.83865" lon="5.43471">
        <ele>432</ele>
        <time>2015-03-01T11:06:16Z</time>
      </trkpt>
      <trkpt lat="49.83869" lon="5.4347">
        <ele>432</ele>
        <time>2015-03-01T11:06:21Z</time>
      </trkpt>
      <trkpt lat="49.83876" lon="5.43469">
        <ele>431</ele>
        <time>2015-03-01T11:06:27Z</time>
      </trkpt>
      <trkpt lat="49.83883" lon="5.4347">
        <ele>430</ele>
        <time>2015-03-01T11:06:33Z</time>
      </trkpt>
      <trkpt lat="49.83885" lon="5.43467">
        <ele>431</ele>
        <time>2015-03-01T11:06:38Z</time>
      </trkpt>
      <trkpt lat="49.83884" lon="5.43458">
        <ele>432</ele>
        <time>2015-03-01T11:06:44Z</time>
      </trkpt>
      <trkpt lat="49.83884" lon="5.43451">
        <ele>433</ele>
        <time>2015-03-01T11:06:49Z</time>
      </trkpt>
      <trkpt lat="49.83887" lon="5.43441">
        <ele>432</ele>
        <time>2015-03-01T11:06:55Z</time>
      </trkpt>
      <trkpt lat="49.83889" lon="5.43433">
        <ele>433</ele>
        <time>2015-03-01T11:07:01Z</time>
      </trkpt>
      <trkpt lat="49.83892" lon="5.43422">
        <ele>433</ele>
        <time>2015-03-01T11:07:06Z</time>
      </trkpt>
      <trkpt lat="49.83896" lon="5.43415">
        <ele>431</ele>
        <time>2015-03-01T11:07:11Z</time>
      </trkpt>
      <trkpt lat="49.839" lon="5.43411">
        <ele>431</ele>
        <time>2015-03-01T11:07:12Z</time>
      </trkpt>
    </trkseg>
  </trk>
</gpx>